Observation data for Estelline on 04/24/2019      Previous  Date  Next       Current Mesonet Observations  Soil Data  Daily Summary Page  Observations in Plain Language
KES1 240500Z 21004KT 12/11 A3002 RMK A01 T01170113  RH  097%=      5-min Rain = 0
KES1 240501Z 21004KT 12/11 A3002 RMK A01 T01170113  RH  097%=      5-min Rain = 0
KES1 240502Z 21004KT 12/11 A3002 RMK A01 T01170113  RH  097%=      5-min Rain = 0
KES1 240503Z 22003KT 12/11 A3002 RMK A01 T01170113  RH  097%=      5-min Rain = 0
KES1 240504Z 23003KT 12/11 A3001 RMK A01 T01170112  RH  097%=      5-min Rain = 0
KES1 240505Z 23003KT 12/11 A3001 RMK A01 T01170112  RH  097%=      5-min Rain = 0
KES1 240506Z 24004KT 12/11 A3001 RMK A01 T01160112  RH  097%=      5-min Rain = 0
KES1 240507Z 24004KT 12/11 A3001 RMK A01 T01160111  RH  097%=      5-min Rain = 0
KES1 240508Z 25004KT 12/11 A3001 RMK A01 T01160111  RH  097%=      5-min Rain = 0
KES1 240509Z 25004KT 12/11 A3001 RMK A01 T01160111  RH  097%=      5-min Rain = 0
KES1 240510Z 25004KT 12/11 A3001 RMK A01 T01160111  RH  097%=      5-min Rain = 0
KES1 240511Z 24004KT 12/11 A3001 RMK A01 T01150111  RH  097%=      5-min Rain = 0
KES1 240512Z 24004KT 12/11 A3001 RMK A01 T01160111  RH  097%=      5-min Rain = 0
KES1 240513Z 24004KT 12/11 A3001 RMK A01 T01160111  RH  097%=      5-min Rain = 0
KES1 240514Z 23004KT 12/11 A3001 RMK A01 T01150111  RH  097%=      5-min Rain = 0
KES1 240515Z 23004KT 12/11 A3001 RMK A01 T01150111  RH  097%=      5-min Rain = 0
KES1 240516Z 23004KT 12/11 A3001 RMK A01 T01150110  RH  097%=      5-min Rain = 0
KES1 240517Z 23004KT 12/11 A3001 RMK A01 T01150111  RH  097%=      5-min Rain = 0
KES1 240518Z 24004KT 12/11 A3001 RMK A01 T01150110  RH  097%=      5-min Rain = 0
KES1 240519Z 24004KT 12/11 A3001 RMK A01 T01150110  RH  097%=      5-min Rain = 0
KES1 240520Z 25004KT 12/11 A3001 RMK A01 T01150110  RH  097%=      5-min Rain = 0
KES1 240521Z 25004KT 12/11 A30 RMK A01 T01150110  RH  097%=      5-min Rain = 0
KES1 240522Z 25004KT 12/11 A30 RMK A01 T01150110  RH  097%=      5-min Rain = 0
KES1 240523Z 25004KT 11/11 A30 RMK A01 T01140110  RH  097%=      5-min Rain = 0
KES1 240524Z 25004KT 11/11 A30 RMK A01 T01140110  RH  097%=      5-min Rain = 0
KES1 240525Z 25003KT 11/11 A30 RMK A01 T01140109  RH  097%=      5-min Rain = 0
KES1 240526Z 25003KT 11/11 A30 RMK A01 T01140109  RH  097%=      5-min Rain = 0
KES1 240527Z 24003KT 11/11 A30 RMK A01 T01130109  RH  097%=      5-min Rain = 0
KES1 240528Z 24003KT 11/11 A30 RMK A01 T01130108  RH  097%=      5-min Rain = 0
KES1 240529Z 24003KT 11/11 A30 RMK A01 T01130109  RH  097%=      5-min Rain = 0
KES1 240530Z 25003KT 11/11 A30 RMK A01 T01130108  RH  097%=      5-min Rain = 0
KES1 240531Z 25004KT 11/11 A30 RMK A01 T01120108  RH  097%=      5-min Rain = 0
KES1 240532Z 26004KT 11/11 A30 RMK A01 T01120108  RH  097%=      5-min Rain = 0
KES1 240533Z 26004KT 11/11 A30 RMK A01 T01120108  RH  097%=      5-min Rain = 0
KES1 240534Z 27004KT 11/11 A30 RMK A01 T01130108  RH  097%=      5-min Rain = 0
KES1 240535Z 27004KT 11/11 A30 RMK A01 T01130109  RH  097%=      5-min Rain = 0
KES1 240536Z 27004KT 11/11 A30 RMK A01 T01130109  RH  097%=      5-min Rain = 0
KES1 240537Z 27004KT 11/11 A2999 RMK A01 T01130109  RH  097%=      5-min Rain = 0
KES1 240538Z 28004KT 11/11 A2999 RMK A01 T01130109  RH  097%=      5-min Rain = 0
KES1 240539Z 28004KT 11/11 A2999 RMK A01 T01130109  RH  097%=      5-min Rain = 0
KES1 240540Z 29004KT 11/11 A2999 RMK A01 T01130109  RH  097%=      5-min Rain = 0
KES1 240541Z 29005KT 11/11 A2999 RMK A01 T01130109  RH  097%=      5-min Rain = 0
KES1 240542Z 28004KT 11/11 A2999 RMK A01 T01120108  RH  097%=      5-min Rain = 0
KES1 240543Z 28004KT 11/11 A2999 RMK A01 T01120108  RH  097%=      5-min Rain = 0
KES1 240544Z 28004KT 11/11 A2999 RMK A01 T01130109  RH  097%=      5-min Rain = 0
KES1 240545Z 29004KT 11/11 A30 RMK A01 T01130109  RH  097%=      5-min Rain = 0
KES1 240546Z 29004KT 11/11 A30 RMK A01 T01130109  RH  097%=      5-min Rain = 0
KES1 240547Z 29004KT 11/11 A30 RMK A01 T01130110  RH  097%=      5-min Rain = 0
KES1 240548Z 29004KT 11/11 A30 RMK A01 T01140110  RH  098%=      5-min Rain = 0
KES1 240549Z 29004KT 12/11 A30 RMK A01 T01150112  RH  098%=      5-min Rain = 0
KES1 240550Z 29003KT 12/11 A30 RMK A01 T01160112  RH  098%=      5-min Rain = 0
KES1 240551Z 29004KT 12/11 A30 RMK A01 T01160112  RH  097%=      5-min Rain = 0
KES1 240552Z 29004KT 12/11 A30 RMK A01 T01160112  RH  097%=      5-min Rain = 0
KES1 240553Z 28003KT 12/11 A30 RMK A01 T01160112  RH  097%=      5-min Rain = 0
KES1 240554Z 29004KT 12/11 A30 RMK A01 T01160111  RH  097%=      5-min Rain = 0
KES1 240555Z 29004KT 12/11 A30 RMK A01 T01160111  RH  097%=      5-min Rain = 0
KES1 240556Z 29004KT 12/11 A30 RMK A01 T01160111  RH  097%=      5-min Rain = 0
KES1 240557Z 29003KT 12/11 A30 RMK A01 T01160111  RH  097%=      5-min Rain = 0
KES1 240558Z 29003KT 12/11 A30 RMK A01 T01160111  RH  096%=      5-min Rain = 0
KES1 240559Z 29003KT 12/11 A30 RMK A01 T01170111  RH  096%=      5-min Rain = 0
KES1 240600Z 29003KT 12/11 A30 RMK A01 T01170111  RH  096%=      5-min Rain = 0
KES1 240601Z 28002KT 12/11 A30 RMK A01 T01170111  RH  096%=      5-min Rain = 0
KES1 240602Z 28002KT 12/11 A30 RMK A01 T01180111  RH  096%=      5-min Rain = 0
KES1 240603Z 28002KT 12/11 A30 RMK A01 T01170110  RH  096%=      5-min Rain = 0
KES1 240604Z 29002KT 12/11 A30 RMK A01 T01180111  RH  096%=      5-min Rain = 0
KES1 240605Z 28002KT 12/11 A30 RMK A01 T01170110  RH  095%=      5-min Rain = 0
KES1 240606Z 28002KT 12/11 A30 RMK A01 T01180110  RH  095%=      5-min Rain = 0
KES1 240607Z 28002KT 12/11 A30 RMK A01 T01170110  RH  095%=      5-min Rain = 0
KES1 240608Z 28002KT 12/11 A30 RMK A01 T01170110  RH  095%=      5-min Rain = 0
KES1 240609Z 27002KT 12/11 A30 RMK A01 T01170110  RH  095%=      5-min Rain = 0
KES1 240610Z 27002KT 12/11 A30 RMK A01 T01170109  RH  095%=      5-min Rain = 0
KES1 240611Z 28003KT 12/11 A30 RMK A01 T01170109  RH  095%=      5-min Rain = 0
KES1 240612Z 28002KT 12/11 A30 RMK A01 T01170110  RH  095%=      5-min Rain = 0
KES1 240613Z 28003KT 12/11 A30 RMK A01 T01170109  RH  095%=      5-min Rain = 0
KES1 240614Z 29003KT 12/11 A30 RMK A01 T01180110  RH  095%=      5-min Rain = 0
KES1 240615Z 28004KT 12/11 A30 RMK A01 T01170109  RH  095%=      5-min Rain = 0
KES1 240616Z 28003KT 12/11 A30 RMK A01 T01170109  RH  095%=      5-min Rain = 0
KES1 240617Z 27003KT 12/11 A30 RMK A01 T01170109  RH  095%=      5-min Rain = 0
KES1 240618Z 28003KT 12/11 A30 RMK A01 T01170109  RH  095%=      5-min Rain = 0
KES1 240619Z 28003KT 12/11 A30 RMK A01 T01170109  RH  095%=      5-min Rain = 0
KES1 240620Z 28003KT 12/11 A30 RMK A01 T01170108  RH  094%=      5-min Rain = 0
KES1 240621Z 28003KT 12/11 A30 RMK A01 T01170108  RH  095%=      5-min Rain = 0
KES1 240622Z 28002KT 12/11 A30 RMK A01 T01170108  RH  095%=      5-min Rain = 0
KES1 240623Z 27002KT 12/11 A2999 RMK A01 T01170108  RH  094%=      5-min Rain = 0
KES1 240624Z 26002KT 12/11 A2999 RMK A01 T01170108  RH  094%=      5-min Rain = 0
KES1 240625Z 26002KT 12/11 A2999 RMK A01 T01170108  RH  094%=      5-min Rain = 0
KES1 240626Z 26002KT 12/11 A2999 RMK A01 T01170108  RH  094%=      5-min Rain = 0
KES1 240627Z 28001KT 12/11 A2999 RMK A01 T01180108  RH  094%=      5-min Rain = 0
KES1 240628Z 28002KT 12/11 A2999 RMK A01 T01170108  RH  094%=      5-min Rain = 0
KES1 240629Z 29002KT 12/11 A2999 RMK A01 T01170106  RH  093%=      5-min Rain = 0
KES1 240630Z 30002KT 12/11 A2999 RMK A01 T01170105  RH  092%=      5-min Rain = 0
KES1 240631Z 31003KT 12/11 A2999 RMK A01 T01170105  RH  092%=      5-min Rain = 0
KES1 240632Z 31003KT 12/10 A2999 RMK A01 T01170104  RH  092%=      5-min Rain = 0
KES1 240633Z 32003KT 12/10 A2998 RMK A01 T01180104  RH  091%=      5-min Rain = 0
KES1 240634Z 33003KT 12/10 A2998 RMK A01 T01180103  RH  091%=      5-min Rain = 0
KES1 240635Z 32003KT 12/10 A2998 RMK A01 T01190103  RH  090%=      5-min Rain = 0
KES1 240636Z 32004KT 12/10 A2998 RMK A01 T01190102  RH  089%=      5-min Rain = 0
KES1 240637Z 32003KT 12/10 A2998 RMK A01 T01190102  RH  089%=      5-min Rain = 0
KES1 240638Z 32003KT 12/10 A2998 RMK A01 T01200102  RH  089%=      5-min Rain = 0
KES1 240639Z 32004KT 12/10 A2998 RMK A01 T01190102  RH  089%=      5-min Rain = 0
KES1 240640Z 32003KT 12/10 A2998 RMK A01 T01190101  RH  089%=      5-min Rain = 0
KES1 240641Z 32003KT 12/10 A2998 RMK A01 T01190101  RH  089%=      5-min Rain = 0
KES1 240642Z 34003KT 12/10 A2998 RMK A01 T01180101  RH  089%=      5-min Rain = 0
KES1 240643Z 34003KT 12/10 A2997 RMK A01 T01180099  RH  088%=      5-min Rain = 0
KES1 240644Z 36003KT 12/10 A2997 RMK A01 T01190099  RH  088%=      5-min Rain = 0
KES1 240645Z 35004KT 12/10 A2997 RMK A01 T01190100  RH  088%=      5-min Rain = 0
KES1 240646Z 35003KT 12/10 A2997 RMK A01 T01190099  RH  088%=      5-min Rain = 0
KES1 240647Z 35003KT 12/10 A2997 RMK A01 T01190099  RH  088%=      5-min Rain = 0
KES1 240648Z 35003KT 12/10 A2997 RMK A01 T01190100  RH  088%=      5-min Rain = 0
KES1 240649Z 35002KT 12/10 A2997 RMK A01 T01190100  RH  088%=      5-min Rain = 0
KES1 240650Z 34002KT 12/10 A2998 RMK A01 T01180100  RH  088%=      5-min Rain = 0
KES1 240651Z 34002KT 12/10 A2998 RMK A01 T01180100  RH  089%=      5-min Rain = 0
KES1 240652Z 34002KT 12/10 A2998 RMK A01 T01170099  RH  088%=      5-min Rain = 0
KES1 240653Z 33002KT 12/10 A2998 RMK A01 T01170098  RH  088%=      5-min Rain = 0
KES1 240654Z 33001KT 12/10 A2998 RMK A01 T01170097  RH  088%=      5-min Rain = 0
KES1 240655Z 32000KT 12/10 A2998 RMK A01 T01170097  RH  088%=      5-min Rain = 0
KES1 240656Z 00000KT 12/10 A2999 RMK A01 T01170097  RH  088%=      5-min Rain = 0
KES1 240657Z 20000KT 12/10 A2999 RMK A01 T01170096  RH  087%=      5-min Rain = 0
KES1 240658Z 20002KT 12/10 A30 RMK A01 T01160095  RH  087%=      5-min Rain = 0
KES1 240659Z 20002KT 12/10 A30 RMK A01 T01170096  RH  087%=      5-min Rain = 0
KES1 240700Z 20002KT 12/10 A30 RMK A01 T01160095  RH  087%=      5-min Rain = 0
KES1 240701Z 20002KT 12/09 A30 RMK A01 T01150094  RH  087%=      5-min Rain = 0
KES1 240702Z 21001KT 12/09 A30 RMK A01 T01150094  RH  087%=      5-min Rain = 0
KES1 240703Z 19001KT 12/09 A30 RMK A01 T01150094  RH  087%=      5-min Rain = 0
KES1 240704Z 00000KT 11/10 A2999 RMK A01 T01140095  RH  088%=      5-min Rain = 0
KES1 240705Z 00000KT 11/10 A2999 RMK A01 T01130095  RH  089%=      5-min Rain = 0
KES1 240706Z 00000KT 11/10 A2999 RMK A01 T01120095  RH  090%=      5-min Rain = 0
KES1 240707Z 00000KT 11/10 A2999 RMK A01 T01110095  RH  090%=      5-min Rain = 0
KES1 240708Z 35002KT 11/09 A2999 RMK A01 T01110092  RH  088%=      5-min Rain = 0
KES1 240709Z 35002KT 11/09 A2999 RMK A01 T01110087  RH  085%=      5-min Rain = 0
KES1 240710Z 34001KT 11/09 A2999 RMK A01 T01130086  RH  084%=      5-min Rain = 0
KES1 240711Z 30001KT 11/09 A2999 RMK A01 T01140086  RH  083%=      5-min Rain = 0
KES1 240712Z 29001KT 12/09 A30 RMK A01 T01150086  RH  082%=      5-min Rain = 0
KES1 240713Z 30002KT 12/09 A30 RMK A01 T01160087  RH  082%=      5-min Rain = 0
KES1 240714Z 30002KT 12/09 A30 RMK A01 T01160088  RH  083%=      5-min Rain = 0
KES1 240715Z 31002KT 12/09 A30 RMK A01 T01160088  RH  083%=      5-min Rain = 0
KES1 240716Z 29002KT 12/09 A2999 RMK A01 T01160087  RH  082%=      5-min Rain = 0
KES1 240717Z 29002KT 12/09 A2999 RMK A01 T01160087  RH  082%=      5-min Rain = 0
KES1 240718Z 28002KT 12/09 A2999 RMK A01 T01160087  RH  082%=      5-min Rain = 0
KES1 240719Z 28002KT 12/09 A30 RMK A01 T01160087  RH  082%=      5-min Rain = 0
KES1 240720Z 29002KT 12/09 A30 RMK A01 T01170087  RH  082%=      5-min Rain = 0
KES1 240721Z 29002KT 12/09 A30 RMK A01 T01170086  RH  082%=      5-min Rain = 0
KES1 240722Z 29002KT 12/09 A30 RMK A01 T01170087  RH  082%=      5-min Rain = 0
KES1 240723Z 29002KT 12/09 A30 RMK A01 T01170088  RH  083%=      5-min Rain = 0
KES1 240724Z 29002KT 12/09 A30 RMK A01 T01160089  RH  083%=      5-min Rain = 0
KES1 240725Z 29002KT 12/09 A30 RMK A01 T01150089  RH  084%=      5-min Rain = 0
KES1 240726Z 29002KT 12/09 A30 RMK A01 T01150089  RH  084%=      5-min Rain = 0
KES1 240727Z 29001KT 11/09 A30 RMK A01 T01140089  RH  085%=      5-min Rain = 0
KES1 240728Z 27001KT 11/09 A30 RMK A01 T01120090  RH  086%=      5-min Rain = 0
KES1 240729Z 27001KT 11/09 A30 RMK A01 T01110090  RH  087%=      5-min Rain = 0
KES1 240730Z 26002KT 11/09 A30 RMK A01 T01100090  RH  088%=      5-min Rain = 0
KES1 240731Z 27002KT 11/09 A30 RMK A01 T01100089  RH  087%=      5-min Rain = 0
KES1 240732Z 27002KT 11/09 A30 RMK A01 T01090088  RH  087%=      5-min Rain = 0
KES1 240733Z 27002KT 11/09 A30 RMK A01 T01090088  RH  086%=      5-min Rain = 0
KES1 240734Z 27002KT 11/09 A30 RMK A01 T01090087  RH  086%=      5-min Rain = 0
KES1 240735Z 27002KT 11/09 A30 RMK A01 T01100087  RH  086%=      5-min Rain = 0
KES1 240736Z 28002KT 11/09 A30 RMK A01 T01100087  RH  085%=      5-min Rain = 0
KES1 240737Z 27002KT 11/09 A30 RMK A01 T01110087  RH  085%=      5-min Rain = 0
KES1 240738Z 26002KT 11/09 A30 RMK A01 T01110086  RH  085%=      5-min Rain = 0
KES1 240739Z 25002KT 11/09 A3001 RMK A01 T01110085  RH  084%=      5-min Rain = 0
KES1 240740Z 25002KT 11/09 A3001 RMK A01 T01110085  RH  084%=      5-min Rain = 0
KES1 240741Z 24003KT 11/09 A3001 RMK A01 T01110085  RH  084%=      5-min Rain = 0
KES1 240742Z 24003KT 11/09 A3001 RMK A01 T01110085  RH  084%=      5-min Rain = 0
KES1 240743Z 24003KT 11/09 A3001 RMK A01 T01110086  RH  085%=      5-min Rain = 0
KES1 240744Z 24003KT 11/09 A3002 RMK A01 T01100086  RH  085%=      5-min Rain = 0
KES1 240745Z 24003KT 11/09 A3002 RMK A01 T01090087  RH  086%=      5-min Rain = 0
KES1 240746Z 23003KT 11/09 A3002 RMK A01 T01080087  RH  086%=      5-min Rain = 0
KES1 240747Z 23003KT 11/09 A3002 RMK A01 T01080087  RH  087%=      5-min Rain = 0
KES1 240748Z 23002KT 11/09 A3002 RMK A01 T01080087  RH  087%=      5-min Rain = 0
KES1 240749Z 23002KT 11/09 A3002 RMK A01 T01090087  RH  086%=      5-min Rain = 0
KES1 240750Z 23002KT 11/09 A3002 RMK A01 T01090087  RH  086%=      5-min Rain = 0
KES1 240751Z 25001KT 11/09 A3001 RMK A01 T01090086  RH  086%=      5-min Rain = 0
KES1 240752Z 25000KT 11/09 A3001 RMK A01 T01070085  RH  086%=      5-min Rain = 0
KES1 240753Z 00000KT 11/09 A3001 RMK A01 T01050085  RH  087%=      5-min Rain = 0
KES1 240754Z 00000KT 10/09 A3001 RMK A01 T01030085  RH  088%=      5-min Rain = 0
KES1 240755Z 00000KT 10/09 A3001 RMK A01 T01030085  RH  089%=      5-min Rain = 0
KES1 240756Z 00000KT 10/09 A3001 RMK A01 T01020086  RH  089%=      5-min Rain = 0
KES1 240757Z 00000KT 10/09 A3001 RMK A01 T01030085  RH  089%=      5-min Rain = 0
KES1 240758Z 00000KT 10/09 A3001 RMK A01 T01030085  RH  089%=      5-min Rain = 0
KES1 240759Z 00000KT 10/09 A3001 RMK A01 T01030085  RH  089%=      5-min Rain = 0
KES1 240800Z 00000KT 10/09 A3001 RMK A01 T01030085  RH  089%=      5-min Rain = 0
KES1 240801Z 00000KT 10/09 A3001 RMK A01 T01030086  RH  089%=      5-min Rain = 0
KES1 240802Z 00000KT 10/09 A3001 RMK A01 T01030086  RH  089%=      5-min Rain = 0
KES1 240803Z 18001KT 10/08 A3001 RMK A01 T01030084  RH  088%=      5-min Rain = 0
KES1 240804Z 17001KT 11/08 A3001 RMK A01 T01050081  RH  085%=      5-min Rain = 0
KES1 240805Z 18000KT 11/08 A3002 RMK A01 T01080081  RH  083%=      5-min Rain = 0
KES1 240806Z 20001KT 11/08 A3002 RMK A01 T01090084  RH  085%=      5-min Rain = 0
KES1 240807Z 21001KT 11/08 A3001 RMK A01 T01070084  RH  086%=      5-min Rain = 0
KES1 240808Z 23001KT 11/08 A3001 RMK A01 T01060084  RH  086%=      5-min Rain = 0
KES1 240809Z 26001KT 11/08 A3001 RMK A01 T01060082  RH  085%=      5-min Rain = 0
KES1 240810Z 28002KT 11/08 A3001 RMK A01 T01050081  RH  085%=      5-min Rain = 0
KES1 240811Z 28002KT 11/08 A3001 RMK A01 T01050082  RH  086%=      5-min Rain = 0
KES1 240812Z 29003KT 11/08 A30 RMK A01 T01060081  RH  085%=      5-min Rain = 0
KES1 240813Z 30003KT 11/08 A30 RMK A01 T01070082  RH  085%=      5-min Rain = 0
KES1 240814Z 30004KT 11/09 A30 RMK A01 T01080085  RH  085%=      5-min Rain = 0
KES1 240815Z 30004KT 11/09 A30 RMK A01 T01080087  RH  087%=      5-min Rain = 0
KES1 240816Z 30004KT 11/09 A30 RMK A01 T01080088  RH  088%=      5-min Rain = 0
KES1 240817Z 29004KT 11/09 A30 RMK A01 T01070090  RH  089%=      5-min Rain = 0
KES1 240818Z 29004KT 11/09 A30 RMK A01 T01070089  RH  089%=      5-min Rain = 0
KES1 240819Z 29004KT 11/09 A30 RMK A01 T01050089  RH  090%=      5-min Rain = 0
KES1 240820Z 28005KT 10/09 A30 RMK A01 T01030087  RH  089%=      5-min Rain = 0
KES1 240821Z 28004KT 10/08 A30 RMK A01 T01010084  RH  089%=      5-min Rain = 0
KES1 240822Z 28004KT 10/08 A30 RMK A01 T00990084  RH  090%=      5-min Rain = 0
KES1 240823Z 28004KT 10/08 A30 RMK A01 T00980084  RH  091%=      5-min Rain = 0
KES1 240824Z 27003KT 10/08 A30 RMK A01 T00970084  RH  091%=      5-min Rain = 0
KES1 240825Z 28003KT 10/08 A30 RMK A01 T00960083  RH  092%=      5-min Rain = 0
KES1 240826Z 28003KT 10/08 A30 RMK A01 T00960083  RH  092%=      5-min Rain = 0
KES1 240827Z 30003KT 10/08 A30 RMK A01 T00950083  RH  092%=      5-min Rain = 0
KES1 240828Z 31003KT 10/08 A30 RMK A01 T00950083  RH  093%=      5-min Rain = 0
KES1 240829Z 32004KT 09/08 A2999 RMK A01 T00940083  RH  093%=      5-min Rain = 0
KES1 240830Z 33004KT 09/08 A2999 RMK A01 T00940083  RH  092%=      5-min Rain = 0
KES1 240831Z 33004KT 10/08 A2999 RMK A01 T00950083  RH  092%=      5-min Rain = 0
KES1 240832Z 33004KT 10/08 A2999 RMK A01 T00960084  RH  092%=      5-min Rain = 0
KES1 240833Z 33003KT 10/09 A2999 RMK A01 T00980085  RH  092%=      5-min Rain = 0
KES1 240834Z 34003KT 10/09 A2999 RMK A01 T00990086  RH  091%=      5-min Rain = 0
KES1 240835Z 34003KT 10/09 A2999 RMK A01 T01010087  RH  091%=      5-min Rain = 0
KES1 240836Z 33003KT 10/09 A2998 RMK A01 T01010086  RH  091%=      5-min Rain = 0
KES1 240837Z 33003KT 10/08 A2999 RMK A01 T01010084  RH  090%=      5-min Rain = 0
KES1 240838Z 34003KT 10/08 A2999 RMK A01 T00990083  RH  090%=      5-min Rain = 0
KES1 240839Z 34004KT 10/08 A2999 RMK A01 T00990082  RH  089%=      5-min Rain = 0
KES1 240840Z 33004KT 10/08 A2999 RMK A01 T01000082  RH  089%=      5-min Rain = 0
KES1 240841Z 33004KT 10/08 A2999 RMK A01 T01010082  RH  088%=      5-min Rain = 0
KES1 240842Z 33003KT 10/08 A2999 RMK A01 T01020081  RH  087%=      5-min Rain = 0
KES1 240843Z 33004KT 10/08 A2999 RMK A01 T01030080  RH  086%=      5-min Rain = 0
KES1 240844Z 33003KT 10/08 A2999 RMK A01 T01040080  RH  085%=      5-min Rain = 0
KES1 240845Z 33004KT 11/08 A2999 RMK A01 T01050079  RH  084%=      5-min Rain = 0
KES1 240846Z 33004KT 11/08 A2999 RMK A01 T01060079  RH  084%=      5-min Rain = 0
KES1 240847Z 33005KT 11/08 A2999 RMK A01 T01060078  RH  083%=      5-min Rain = 0
KES1 240848Z 33005KT 11/08 A2998 RMK A01 T01060079  RH  083%=      5-min Rain = 0
KES1 240849Z 33005KT 11/08 A2998 RMK A01 T01070079  RH  083%=      5-min Rain = 0
KES1 240850Z 34005KT 11/08 A2998 RMK A01 T01070080  RH  084%=      5-min Rain = 0
KES1 240851Z 34005KT 11/08 A2998 RMK A01 T01070078  RH  083%=      5-min Rain = 0
KES1 240852Z 34004KT 11/08 A2998 RMK A01 T01070079  RH  083%=      5-min Rain = 0
KES1 240853Z 34004KT 11/08 A2998 RMK A01 T01070079  RH  083%=      5-min Rain = 0
KES1 240854Z 34003KT 11/08 A2999 RMK A01 T01070079  RH  083%=      5-min Rain = 0
KES1 240855Z 34003KT 11/08 A2999 RMK A01 T01060080  RH  084%=      5-min Rain = 0
KES1 240856Z 35002KT 11/08 A2999 RMK A01 T01060080  RH  084%=      5-min Rain = 0
KES1 240857Z 35002KT 11/08 A2998 RMK A01 T01050081  RH  085%=      5-min Rain = 0
KES1 240858Z 35002KT 10/08 A2998 RMK A01 T01030079  RH  085%=      5-min Rain = 0
KES1 240859Z 34003KT 10/08 A2998 RMK A01 T01010078  RH  086%=      5-min Rain = 0
KES1 240900Z 34003KT 10/08 A2998 RMK A01 T01000077  RH  086%=      5-min Rain = 0
KES1 240901Z 33004KT 10/08 A2998 RMK A01 T01000079  RH  087%=      5-min Rain = 0
KES1 240902Z 33004KT 10/08 A2998 RMK A01 T01010080  RH  087%=      5-min Rain = 0
KES1 240903Z 33004KT 10/08 A2998 RMK A01 T01030081  RH  086%=      5-min Rain = 0
KES1 240904Z 33005KT 10/08 A2998 RMK A01 T01030080  RH  086%=      5-min Rain = 0
KES1 240905Z 33005KT 10/08 A2998 RMK A01 T01030081  RH  086%=      5-min Rain = 0
KES1 240906Z 33005KT 10/08 A2998 RMK A01 T01030081  RH  086%=      5-min Rain = 0
KES1 240907Z 33005KT 10/08 A2998 RMK A01 T01030080  RH  086%=      5-min Rain = 0
KES1 240908Z 33005KT 10/08 A2998 RMK A01 T01030080  RH  086%=      5-min Rain = 0
KES1 240909Z 33004KT 10/08 A2998 RMK A01 T01030080  RH  086%=      5-min Rain = 0
KES1 240910Z 33004KT 10/08 A2998 RMK A01 T01030080  RH  086%=      5-min Rain = 0
KES1 240911Z 33004KT 10/08 A2998 RMK A01 T01030080  RH  086%=      5-min Rain = 0
KES1 240912Z 33003KT 10/08 A2998 RMK A01 T01030080  RH  085%=      5-min Rain = 0
KES1 240913Z 33003KT 10/08 A2998 RMK A01 T01030081  RH  086%=      5-min Rain = 0
KES1 240914Z 33003KT 10/08 A2998 RMK A01 T01030081  RH  086%=      5-min Rain = 0
KES1 240915Z 33003KT 10/08 A2998 RMK A01 T01030082  RH  087%=      5-min Rain = 0
KES1 240916Z 33003KT 10/08 A2998 RMK A01 T01030082  RH  087%=      5-min Rain = 0
KES1 240917Z 33002KT 10/08 A2998 RMK A01 T01030083  RH  087%=      5-min Rain = 0
KES1 240918Z 33002KT 10/08 A2998 RMK A01 T01020084  RH  088%=      5-min Rain = 0
KES1 240919Z 33003KT 10/08 A2998 RMK A01 T01020084  RH  088%=      5-min Rain = 0
KES1 240920Z 33003KT 10/08 A2998 RMK A01 T01020084  RH  089%=      5-min Rain = 0
KES1 240921Z 33004KT 10/08 A2998 RMK A01 T01020084  RH  089%=      5-min Rain = 0
KES1 240922Z 33004KT 10/09 A2998 RMK A01 T01010085  RH  089%=      5-min Rain = 0
KES1 240923Z 34004KT 10/09 A2998 RMK A01 T01010085  RH  090%=      5-min Rain = 0
KES1 240924Z 34004KT 10/09 A2998 RMK A01 T01010085  RH  090%=      5-min Rain = 0
KES1 240925Z 35004KT 10/09 A2998 RMK A01 T01010085  RH  090%=      5-min Rain = 0
KES1 240926Z 35003KT 10/08 A2998 RMK A01 T01000084  RH  090%=      5-min Rain = 0
KES1 240927Z 35002KT 10/08 A2998 RMK A01 T00980080  RH  089%=      5-min Rain = 0
KES1 240928Z 02001KT 10/08 A2998 RMK A01 T00950078  RH  089%=      5-min Rain = 0
KES1 240929Z 03001KT 09/08 A2998 RMK A01 T00940079  RH  090%=      5-min Rain = 0
KES1 240930Z 02002KT 09/08 A2998 RMK A01 T00930078  RH  091%=      5-min Rain = 0
KES1 240931Z 01002KT 09/08 A2998 RMK A01 T00920078  RH  091%=      5-min Rain = 0
KES1 240932Z 01003KT 09/08 A2998 RMK A01 T00920078  RH  091%=      5-min Rain = 0
KES1 240933Z 00003KT 09/08 A2998 RMK A01 T00920079  RH  092%=      5-min Rain = 0
KES1 240934Z 00003KT 09/08 A2998 RMK A01 T00920079  RH  092%=      5-min Rain = 0
KES1 240935Z 36003KT 09/08 A2998 RMK A01 T00920079  RH  091%=      5-min Rain = 0
KES1 240936Z 00003KT 09/08 A2998 RMK A01 T00920078  RH  091%=      5-min Rain = 0
KES1 240937Z 00003KT 09/08 A2998 RMK A01 T00920078  RH  091%=      5-min Rain = 0
KES1 240938Z 01003KT 09/08 A2998 RMK A01 T00930077  RH  090%=      5-min Rain = 0
KES1 240939Z 00004KT 09/08 A2998 RMK A01 T00940077  RH  089%=      5-min Rain = 0
KES1 240940Z 36004KT 10/08 A2998 RMK A01 T00950077  RH  089%=      5-min Rain = 0
KES1 240941Z 35004KT 10/08 A2998 RMK A01 T00960077  RH  088%=      5-min Rain = 0
KES1 240942Z 35005KT 10/08 A2998 RMK A01 T00970077  RH  088%=      5-min Rain = 0
KES1 240943Z 35005KT 10/08 A2998 RMK A01 T00980077  RH  087%=      5-min Rain = 0
KES1 240944Z 34005KT 10/08 A2998 RMK A01 T00990077  RH  086%=      5-min Rain = 0
KES1 240945Z 34005KT 10/08 A2998 RMK A01 T01000078  RH  086%=      5-min Rain = 0
KES1 240946Z 34005KT 10/08 A2998 RMK A01 T01010078  RH  086%=      5-min Rain = 0
KES1 240947Z 33005KT 10/08 A2998 RMK A01 T01010078  RH  085%=      5-min Rain = 0
KES1 240948Z 33005KT 10/08 A2998 RMK A01 T01010078  RH  086%=      5-min Rain = 0
KES1 240949Z 33005KT 10/08 A2998 RMK A01 T01010077  RH  085%=      5-min Rain = 0
KES1 240950Z 33005KT 10/08 A2998 RMK A01 T01010078  RH  086%=      5-min Rain = 0
KES1 240951Z 34005KT 10/08 A2998 RMK A01 T01010079  RH  086%=      5-min Rain = 0
KES1 240952Z 34004KT 10/08 A2998 RMK A01 T01010077  RH  085%=      5-min Rain = 0
KES1 240953Z 35003KT 10/08 A2998 RMK A01 T01010077  RH  085%=      5-min Rain = 0
KES1 240954Z 36003KT 10/08 A2998 RMK A01 T01010078  RH  086%=      5-min Rain = 0
KES1 240955Z 01002KT 10/08 A2999 RMK A01 T00990076  RH  086%=      5-min Rain = 0
KES1 240956Z 35002KT 10/07 A2999 RMK A01 T00960074  RH  086%=      5-min Rain = 0
KES1 240957Z 35002KT 10/07 A2999 RMK A01 T00950074  RH  087%=      5-min Rain = 0
KES1 240958Z 34002KT 09/07 A2999 RMK A01 T00940073  RH  087%=      5-min Rain = 0
KES1 240959Z 34002KT 09/07 A2999 RMK A01 T00940074  RH  087%=      5-min Rain = 0
KES1 241000Z 34002KT 09/07 A2999 RMK A01 T00940073  RH  087%=      5-min Rain = 0
KES1 241001Z 34001KT 09/07 A2999 RMK A01 T00940074  RH  087%=      5-min Rain = 0
KES1 241002Z 34001KT 09/07 A2999 RMK A01 T00940073  RH  087%=      5-min Rain = 0
KES1 241003Z 36001KT 09/07 A2999 RMK A01 T00940073  RH  087%=      5-min Rain = 0
KES1 241004Z 35001KT 10/07 A2999 RMK A01 T00950073  RH  087%=      5-min Rain = 0
KES1 241005Z 35002KT 09/07 A2999 RMK A01 T00940073  RH  087%=      5-min Rain = 0
KES1 241006Z 35001KT 09/07 A2999 RMK A01 T00940073  RH  086%=      5-min Rain = 0
KES1 241007Z 35002KT 10/07 A2999 RMK A01 T00950073  RH  086%=      5-min Rain = 0
KES1 241008Z 35002KT 10/07 A2999 RMK A01 T00950073  RH  086%=      5-min Rain = 0
KES1 241009Z 34002KT 10/07 A2999 RMK A01 T00950073  RH  086%=      5-min Rain = 0
KES1 241010Z 34002KT 10/07 A2999 RMK A01 T00950074  RH  086%=      5-min Rain = 0
KES1 241011Z 34002KT 10/07 A2999 RMK A01 T00950074  RH  087%=      5-min Rain = 0
KES1 241012Z 34002KT 10/08 A2999 RMK A01 T00960075  RH  087%=      5-min Rain = 0
KES1 241013Z 35001KT 10/08 A2999 RMK A01 T00960076  RH  087%=      5-min Rain = 0
KES1 241014Z 00001KT 10/08 A2999 RMK A01 T00960076  RH  087%=      5-min Rain = 0
KES1 241015Z 01001KT 10/08 A2999 RMK A01 T00950075  RH  088%=      5-min Rain = 0
KES1 241016Z 01001KT 09/08 A2999 RMK A01 T00930076  RH  089%=      5-min Rain = 0
KES1 241017Z 01002KT 09/08 A2999 RMK A01 T00920076  RH  090%=      5-min Rain = 0
KES1 241018Z 01001KT 09/08 A2998 RMK A01 T00910076  RH  090%=      5-min Rain = 0
KES1 241019Z 01001KT 09/08 A2998 RMK A01 T00900075  RH  090%=      5-min Rain = 0
KES1 241020Z 01002KT 09/08 A2998 RMK A01 T00910075  RH  090%=      5-min Rain = 0
KES1 241021Z 36002KT 09/07 A2998 RMK A01 T00910074  RH  090%=      5-min Rain = 0
KES1 241022Z 35002KT 09/07 A2998 RMK A01 T00910074  RH  089%=      5-min Rain = 0
KES1 241023Z 35002KT 09/07 A2998 RMK A01 T00910073  RH  089%=      5-min Rain = 0
KES1 241024Z 35002KT 09/07 A2998 RMK A01 T00920074  RH  088%=      5-min Rain = 0
KES1 241025Z 35003KT 09/07 A2998 RMK A01 T00930074  RH  088%=      5-min Rain = 0
KES1 241026Z 34003KT 09/08 A2998 RMK A01 T00940075  RH  088%=      5-min Rain = 0
KES1 241027Z 34003KT 10/08 A2998 RMK A01 T00960076  RH  087%=      5-min Rain = 0
KES1 241028Z 34004KT 10/08 A2998 RMK A01 T00970076  RH  087%=      5-min Rain = 0
KES1 241029Z 34004KT 10/08 A2998 RMK A01 T00980077  RH  087%=      5-min Rain = 0
KES1 241030Z 34004KT 10/08 A2998 RMK A01 T00980078  RH  088%=      5-min Rain = 0
KES1 241031Z 35004KT 10/08 A2998 RMK A01 T00980079  RH  088%=      5-min Rain = 0
KES1 241032Z 35004KT 10/08 A2998 RMK A01 T00980080  RH  088%=      5-min Rain = 0
KES1 241033Z 35003KT 10/08 A2998 RMK A01 T00980080  RH  088%=      5-min Rain = 0
KES1 241034Z 00003KT 10/08 A2998 RMK A01 T00980080  RH  089%=      5-min Rain = 0
KES1 241035Z 00003KT 10/08 A2998 RMK A01 T00970078  RH  088%=      5-min Rain = 0
KES1 241036Z 00003KT 10/08 A2998 RMK A01 T00950076  RH  088%=      5-min Rain = 0
KES1 241037Z 00003KT 09/07 A2998 RMK A01 T00940074  RH  088%=      5-min Rain = 0
KES1 241038Z 36003KT 09/08 A2998 RMK A01 T00940075  RH  088%=      5-min Rain = 0
KES1 241039Z 35003KT 09/08 A2998 RMK A01 T00930076  RH  089%=      5-min Rain = 0
KES1 241040Z 36003KT 09/08 A2998 RMK A01 T00940078  RH  090%=      5-min Rain = 0
KES1 241041Z 00003KT 09/08 A2998 RMK A01 T00930078  RH  090%=      5-min Rain = 0
KES1 241042Z 01003KT 09/08 A2998 RMK A01 T00940078  RH  090%=      5-min Rain = 0
KES1 241043Z 01003KT 09/08 A2998 RMK A01 T00930076  RH  089%=      5-min Rain = 0
KES1 241044Z 02003KT 09/07 A2998 RMK A01 T00920074  RH  089%=      5-min Rain = 0
KES1 241045Z 02003KT 09/07 A2998 RMK A01 T00900073  RH  089%=      5-min Rain = 0
KES1 241046Z 02003KT 09/07 A2998 RMK A01 T00890073  RH  090%=      5-min Rain = 0
KES1 241047Z 01003KT 09/07 A2998 RMK A01 T00880073  RH  090%=      5-min Rain = 0
KES1 241048Z 02003KT 09/07 A2998 RMK A01 T00880073  RH  090%=      5-min Rain = 0
KES1 241049Z 02003KT 09/07 A2998 RMK A01 T00880073  RH  091%=      5-min Rain = 0
KES1 241050Z 02003KT 09/07 A2998 RMK A01 T00880073  RH  090%=      5-min Rain = 0
KES1 241051Z 01002KT 09/07 A2998 RMK A01 T00880073  RH  090%=      5-min Rain = 0
KES1 241052Z 01002KT 09/07 A2998 RMK A01 T00890073  RH  090%=      5-min Rain = 0
KES1 241053Z 36002KT 09/07 A2998 RMK A01 T00890073  RH  090%=      5-min Rain = 0
KES1 241054Z 35002KT 09/07 A2998 RMK A01 T00890073  RH  090%=      5-min Rain = 0
KES1 241055Z 35002KT 09/07 A2998 RMK A01 T00890073  RH  089%=      5-min Rain = 0
KES1 241056Z 34002KT 09/07 A2998 RMK A01 T00900074  RH  089%=      5-min Rain = 0
KES1 241057Z 35003KT 09/08 A2998 RMK A01 T00910075  RH  090%=      5-min Rain = 0
KES1 241058Z 35003KT 09/08 A2998 RMK A01 T00920076  RH  090%=      5-min Rain = 0
KES1 241059Z 35003KT 09/08 A2998 RMK A01 T00920076  RH  090%=      5-min Rain = 0
KES1 241100Z 35003KT 09/08 A2998 RMK A01 T00930076  RH  089%=      5-min Rain = 0
KES1 241101Z 35004KT 09/08 A2997 RMK A01 T00930076  RH  089%=      5-min Rain = 0
KES1 241102Z 35004KT 09/08 A2997 RMK A01 T00940076  RH  089%=      5-min Rain = 0
KES1 241103Z 35004KT 09/08 A2997 RMK A01 T00940076  RH  088%=      5-min Rain = 0
KES1 241104Z 35004KT 09/08 A2997 RMK A01 T00940075  RH  088%=      5-min Rain = 0
KES1 241105Z 34003KT 10/08 A2998 RMK A01 T00950076  RH  088%=      5-min Rain = 0
KES1 241106Z 34003KT 10/08 A2998 RMK A01 T00950076  RH  088%=      5-min Rain = 0
KES1 241107Z 34003KT 10/08 A2998 RMK A01 T00950077  RH  088%=      5-min Rain = 0
KES1 241108Z 35002KT 10/08 A2997 RMK A01 T00950078  RH  089%=      5-min Rain = 0
KES1 241109Z 35002KT 10/08 A2997 RMK A01 T00950077  RH  089%=      5-min Rain = 0
KES1 241110Z 36002KT 10/08 A2997 RMK A01 T00960078  RH  089%=      5-min Rain = 0
KES1 241111Z 00002KT 09/08 A2997 RMK A01 T00940075  RH  088%=      5-min Rain = 0
KES1 241112Z 01002KT 09/07 A2997 RMK A01 T00930073  RH  088%=      5-min Rain = 0
KES1 241113Z 00003KT 09/07 A2997 RMK A01 T00910072  RH  088%=      5-min Rain = 0
KES1 241114Z 36003KT 09/07 A2997 RMK A01 T00900073  RH  089%=      5-min Rain = 0
KES1 241115Z 35003KT 09/07 A2997 RMK A01 T00890073  RH  090%=      5-min Rain = 0
KES1 241116Z 35003KT 09/07 A2997 RMK A01 T00890073  RH  090%=      5-min Rain = 0
KES1 241117Z 35003KT 09/07 A2997 RMK A01 T00890074  RH  091%=      5-min Rain = 0
KES1 241118Z 36002KT 09/08 A2997 RMK A01 T00900075  RH  091%=      5-min Rain = 0
KES1 241119Z 00002KT 09/08 A2997 RMK A01 T00910076  RH  091%=      5-min Rain = 0
KES1 241120Z 01002KT 09/08 A2997 RMK A01 T00910076  RH  090%=      5-min Rain = 0
KES1 241121Z 00002KT 09/08 A2997 RMK A01 T00910075  RH  090%=      5-min Rain = 0
KES1 241122Z 00002KT 09/07 A2997 RMK A01 T00910074  RH  089%=      5-min Rain = 0
KES1 241123Z 35002KT 09/07 A2997 RMK A01 T00910074  RH  089%=      5-min Rain = 0
KES1 241124Z 34003KT 09/07 A2997 RMK A01 T00910074  RH  089%=      5-min Rain = 0
KES1 241125Z 34003KT 09/08 A2997 RMK A01 T00910075  RH  089%=      5-min Rain = 0
KES1 241126Z 34003KT 09/08 A2997 RMK A01 T00920076  RH  090%=      5-min Rain = 0
KES1 241127Z 33003KT 09/08 A2997 RMK A01 T00920077  RH  090%=      5-min Rain = 0
KES1 241128Z 33002KT 09/08 A2997 RMK A01 T00920077  RH  091%=      5-min Rain = 0
KES1 241129Z 33001KT 09/08 A2997 RMK A01 T00920077  RH  091%=      5-min Rain = 0
KES1 241130Z 33000KT 09/08 A2997 RMK A01 T00920077  RH  091%=      5-min Rain = 0
KES1 241131Z 33000KT 09/08 A2997 RMK A01 T00910077  RH  091%=      5-min Rain = 0
KES1 241132Z 17001KT 09/08 A2997 RMK A01 T00910075  RH  090%=      5-min Rain = 0
KES1 241133Z 16001KT 09/07 A2997 RMK A01 T00890073  RH  090%=      5-min Rain = 0
KES1 241134Z 18001KT 09/07 A2998 RMK A01 T00880073  RH  091%=      5-min Rain = 0
KES1 241135Z 21001KT 09/07 A2998 RMK A01 T00880074  RH  091%=      5-min Rain = 0
KES1 241136Z 22002KT 09/07 A2998 RMK A01 T00880074  RH  091%=      5-min Rain = 0
KES1 241137Z 24002KT 09/08 A2998 RMK A01 T00880075  RH  091%=      5-min Rain = 0
KES1 241138Z 25002KT 09/08 A2998 RMK A01 T00880075  RH  091%=      5-min Rain = 0
KES1 241139Z 25002KT 09/08 A2998 RMK A01 T00880075  RH  091%=      5-min Rain = 0
KES1 241140Z 25002KT 09/08 A2998 RMK A01 T00880075  RH  092%=      5-min Rain = 0
KES1 241141Z 25002KT 09/08 A2998 RMK A01 T00880075  RH  092%=      5-min Rain = 0
KES1 241142Z 25002KT 09/08 A2998 RMK A01 T00880076  RH  092%=      5-min Rain = 0
KES1 241143Z 26002KT 09/08 A2998 RMK A01 T00880076  RH  092%=      5-min Rain = 0
KES1 241144Z 26002KT 09/08 A2998 RMK A01 T00880076  RH  092%=      5-min Rain = 0
KES1 241145Z 27002KT 09/08 A2997 RMK A01 T00880076  RH  092%=      5-min Rain = 0
KES1 241146Z 28002KT 09/08 A2997 RMK A01 T00880076  RH  092%=      5-min Rain = 0
KES1 241147Z 29002KT 09/08 A2997 RMK A01 T00880076  RH  092%=      5-min Rain = 0
KES1 241148Z 30002KT 09/08 A2997 RMK A01 T00890077  RH  092%=      5-min Rain = 0
KES1 241149Z 30002KT 09/08 A2997 RMK A01 T00880077  RH  092%=      5-min Rain = 0
KES1 241150Z 30002KT 09/08 A2997 RMK A01 T00890077  RH  093%=      5-min Rain = 0
KES1 241151Z 30001KT 09/08 A2997 RMK A01 T00890077  RH  093%=      5-min Rain = 0
KES1 241152Z 30000KT 09/08 A2997 RMK A01 T00880077  RH  093%=      5-min Rain = 0
KES1 241153Z 00000KT 09/08 A2997 RMK A01 T00880077  RH  093%=      5-min Rain = 0
KES1 241154Z 00000KT 09/08 A2997 RMK A01 T00880077  RH  093%=      5-min Rain = 0
KES1 241155Z 00000KT 09/08 A2997 RMK A01 T00870075  RH  092%=      5-min Rain = 0
KES1 241156Z 00000KT 09/07 A2997 RMK A01 T00860074  RH  092%=      5-min Rain = 0
KES1 241157Z 30001KT 09/07 A2997 RMK A01 T00850074  RH  093%=      5-min Rain = 0
KES1 241158Z 31002KT 09/07 A2997 RMK A01 T00850074  RH  093%=      5-min Rain = 0
KES1 241159Z 31002KT 08/08 A2997 RMK A01 T00840075  RH  094%=      5-min Rain = 0
KES1 241200Z 30002KT 09/08 A2997 RMK A01 T00850076  RH  094%=      5-min Rain = 0
KES1 241201Z 31003KT 09/08 A2997 RMK A01 T00860078  RH  095%=      5-min Rain = 0
KES1 241202Z 30003KT 09/08 A2997 RMK A01 T00860078  RH  095%=      5-min Rain = 0
KES1 241203Z 28003KT 09/08 A2997 RMK A01 T00860079  RH  095%=      5-min Rain = 0
KES1 241204Z 28002KT 09/08 A2997 RMK A01 T00870080  RH  096%=      5-min Rain = 0
KES1 241205Z 27002KT 09/08 A2997 RMK A01 T00860078  RH  095%=      5-min Rain = 0
KES1 241206Z 26002KT 08/08 A2997 RMK A01 T00830075  RH  095%=      5-min Rain = 0
KES1 241207Z 25002KT 08/07 A2997 RMK A01 T00820073  RH  094%=      5-min Rain = 0
KES1 241208Z 25002KT 08/07 A2997 RMK A01 T00810073  RH  095%=      5-min Rain = 0
KES1 241209Z 25002KT 08/07 A2998 RMK A01 T00810073  RH  095%=      5-min Rain = 0
KES1 241210Z 26003KT 08/07 A2998 RMK A01 T00810074  RH  095%=      5-min Rain = 0
KES1 241211Z 26003KT 08/08 A2998 RMK A01 T00820075  RH  095%=      5-min Rain = 0
KES1 241212Z 26003KT 08/08 A2998 RMK A01 T00820075  RH  095%=      5-min Rain = 0
KES1 241213Z 26003KT 08/08 A2998 RMK A01 T00820075  RH  095%=      5-min Rain = 0
KES1 241214Z 26003KT 08/08 A2998 RMK A01 T00820075  RH  095%=      5-min Rain = 0
KES1 241215Z 27003KT 08/08 A2998 RMK A01 T00830076  RH  095%=      5-min Rain = 0
KES1 241216Z 26002KT 08/08 A2998 RMK A01 T00830075  RH  095%=      5-min Rain = 0
KES1 241217Z 26002KT 08/08 A2998 RMK A01 T00830075  RH  095%=      5-min Rain = 0
KES1 241218Z 25002KT 08/08 A2998 RMK A01 T00830076  RH  095%=      5-min Rain = 0
KES1 241219Z 25002KT 08/08 A2998 RMK A01 T00840076  RH  095%=      5-min Rain = 0
KES1 241220Z 26002KT 08/08 A2998 RMK A01 T00840076  RH  095%=      5-min Rain = 0
KES1 241221Z 28002KT 08/08 A2998 RMK A01 T00840076  RH  095%=      5-min Rain = 0
KES1 241222Z 29003KT 08/08 A2998 RMK A01 T00840076  RH  095%=      5-min Rain = 0
KES1 241223Z 29003KT 08/08 A2998 RMK A01 T00840076  RH  095%=      5-min Rain = 0
KES1 241224Z 29003KT 09/08 A2998 RMK A01 T00850076  RH  094%=      5-min Rain = 0
KES1 241225Z 29002KT 09/08 A2998 RMK A01 T00850076  RH  094%=      5-min Rain = 0
KES1 241226Z 29001KT 09/08 A2998 RMK A01 T00850076  RH  094%=      5-min Rain = 0
KES1 241227Z 21000KT 09/08 A2998 RMK A01 T00850076  RH  094%=      5-min Rain = 0
KES1 241228Z 19001KT 08/08 A2998 RMK A01 T00840075  RH  094%=      5-min Rain = 0
KES1 241229Z 19001KT 08/08 A2998 RMK A01 T00840075  RH  094%=      5-min Rain = 0
KES1 241230Z 24002KT 08/08 A2998 RMK A01 T00840076  RH  094%=      5-min Rain = 0
KES1 241231Z 26003KT 08/08 A2998 RMK A01 T00840076  RH  094%=      5-min Rain = 0
KES1 241232Z 27003KT 08/08 A2998 RMK A01 T00840076  RH  094%=      5-min Rain = 0
KES1 241233Z 27004KT 09/08 A2998 RMK A01 T00850076  RH  094%=      5-min Rain = 0
KES1 241234Z 28004KT 09/08 A2998 RMK A01 T00850076  RH  094%=      5-min Rain = 0
KES1 241235Z 28004KT 09/08 A2998 RMK A01 T00850076  RH  094%=      5-min Rain = 0
KES1 241236Z 27003KT 09/08 A2998 RMK A01 T00850076  RH  094%=      5-min Rain = 0
KES1 241237Z 27003KT 09/08 A2998 RMK A01 T00860076  RH  094%=      5-min Rain = 0
KES1 241238Z 26004KT 09/08 A2998 RMK A01 T00860076  RH  094%=      5-min Rain = 0
KES1 241239Z 26004KT 09/08 A2998 RMK A01 T00860076  RH  094%=      5-min Rain = 0
KES1 241240Z 26004KT 09/08 A2999 RMK A01 T00860076  RH  094%=      5-min Rain = 0
KES1 241241Z 26005KT 09/08 A2999 RMK A01 T00860076  RH  094%=      5-min Rain = 0
KES1 241242Z 26006KT 09/08 A2999 RMK A01 T00860076  RH  094%=      5-min Rain = 0
KES1 241243Z 26006KT 09/08 A2999 RMK A01 T00860077  RH  094%=      5-min Rain = 0
KES1 241244Z 27005KT 09/08 A2999 RMK A01 T00860077  RH  094%=      5-min Rain = 0
KES1 241245Z 27005KT 09/08 A2999 RMK A01 T00860077  RH  094%=      5-min Rain = 0
KES1 241246Z 28005KT 09/08 A2999 RMK A01 T00860077  RH  094%=      5-min Rain = 0
KES1 241247Z 28005KT 09/08 A2999 RMK A01 T00860077  RH  094%=      5-min Rain = 0
KES1 241248Z 28005KT 09/08 A2998 RMK A01 T00860077  RH  094%=      5-min Rain = 0
KES1 241249Z 27004KT 09/08 A2998 RMK A01 T00860077  RH  094%=      5-min Rain = 0
KES1 241250Z 28004KT 09/08 A2998 RMK A01 T00860076  RH  094%=      5-min Rain = 0
KES1 241251Z 28003KT 09/08 A2999 RMK A01 T00860076  RH  094%=      5-min Rain = 0
KES1 241252Z 29003KT 09/08 A2999 RMK A01 T00860076  RH  093%=      5-min Rain = 0
KES1 241253Z 28003KT 09/08 A2999 RMK A01 T00860076  RH  093%=      5-min Rain = 0
KES1 241254Z 28003KT 09/08 A2999 RMK A01 T00860076  RH  093%=      5-min Rain = 0
KES1 241255Z 28003KT 09/08 A2999 RMK A01 T00870076  RH  093%=      5-min Rain = 0
KES1 241256Z 28003KT 09/08 A2999 RMK A01 T00870077  RH  093%=      5-min Rain = 0
KES1 241257Z 28004KT 09/08 A2999 RMK A01 T00870076  RH  093%=      5-min Rain = 0
KES1 241258Z 28004KT 09/08 A2999 RMK A01 T00870077  RH  093%=      5-min Rain = 0
KES1 241259Z 29004KT 09/08 A2999 RMK A01 T00870077  RH  094%=      5-min Rain = 0
KES1 241300Z 30004KT 09/08 A2999 RMK A01 T00870077  RH  094%=      5-min Rain = 0
KES1 241301Z 30004KT 09/08 A2999 RMK A01 T00870078  RH  094%=      5-min Rain = 0
KES1 241302Z 30004KT 09/08 A2999 RMK A01 T00880079  RH  094%=      5-min Rain = 0
KES1 241303Z 30004KT 09/08 A2999 RMK A01 T00890079  RH  094%=      5-min Rain = 0
KES1 241304Z 30005KT 09/08 A2999 RMK A01 T00890079  RH  094%=      5-min Rain = 0
KES1 241305Z 30004KT 09/08 A2999 RMK A01 T00900079  RH  093%=      5-min Rain = 0
KES1 241306Z 30004KT 09/08 A2999 RMK A01 T00900080  RH  093%=      5-min Rain = 0
KES1 241307Z 30004KT 09/08 A2998 RMK A01 T00910080  RH  093%=      5-min Rain = 0
KES1 241308Z 31004KT 09/08 A2998 RMK A01 T00920080  RH  093%=      5-min Rain = 0
KES1 241309Z 31004KT 09/08 A2998 RMK A01 T00920081  RH  093%=      5-min Rain = 0
KES1 241310Z 31004KT 09/08 A2998 RMK A01 T00930082  RH  093%=      5-min Rain = 0
KES1 241311Z 30004KT 09/08 A2998 RMK A01 T00930083  RH  093%=      5-min Rain = 0
KES1 241312Z 30004KT 09/08 A2998 RMK A01 T00930082  RH  093%=      5-min Rain = 0
KES1 241313Z 29004KT 09/08 A2998 RMK A01 T00940082  RH  092%=      5-min Rain = 0
KES1 241314Z 28003KT 09/08 A2998 RMK A01 T00940082  RH  092%=      5-min Rain = 0
KES1 241315Z 28003KT 09/08 A2998 RMK A01 T00940083  RH  092%=      5-min Rain = 0
KES1 241316Z 28002KT 09/08 A2998 RMK A01 T00940082  RH  092%=      5-min Rain = 0
KES1 241317Z 28002KT 09/08 A2998 RMK A01 T00940082  RH  092%=      5-min Rain = 0
KES1 241318Z 28004KT 09/08 A2998 RMK A01 T00940082  RH  092%=      5-min Rain = 0
KES1 241319Z 28004KT 09/08 A2998 RMK A01 T00940082  RH  092%=      5-min Rain = 0
KES1 241320Z 28004KT 09/08 A2998 RMK A01 T00940081  RH  091%=      5-min Rain = 0
KES1 241321Z 28004KT 09/08 A2998 RMK A01 T00940081  RH  091%=      5-min Rain = 0
KES1 241322Z 28003KT 09/08 A2998 RMK A01 T00940081  RH  091%=      5-min Rain = 0
KES1 241323Z 28004KT 10/08 A2998 RMK A01 T00950082  RH  092%=      5-min Rain = 0
KES1 241324Z 28004KT 09/08 A2998 RMK A01 T00940081  RH  092%=      5-min Rain = 0
KES1 241325Z 28004KT 09/08 A2998 RMK A01 T00940081  RH  091%=      5-min Rain = 0
KES1 241326Z 28004KT 09/08 A2998 RMK A01 T00940080  RH  091%=      5-min Rain = 0
KES1 241327Z 29004KT 09/08 A2998 RMK A01 T00940079  RH  090%=      5-min Rain = 0
KES1 241328Z 29003KT 09/08 A2998 RMK A01 T00940080  RH  091%=      5-min Rain = 0
KES1 241329Z 29003KT 10/08 A2998 RMK A01 T00950080  RH  091%=      5-min Rain = 0
KES1 241330Z 28003KT 10/08 A2998 RMK A01 T00950080  RH  091%=      5-min Rain = 0
KES1 241331Z 27004KT 10/08 A2998 RMK A01 T00950081  RH  091%=      5-min Rain = 0
KES1 241332Z 26005KT 10/08 A2998 RMK A01 T00960082  RH  091%=      5-min Rain = 0
KES1 241333Z 27005KT 10/08 A2998 RMK A01 T00960082  RH  091%=      5-min Rain = 0
KES1 241334Z 27004KT 10/08 A2998 RMK A01 T00960081  RH  091%=      5-min Rain = 0
KES1 241335Z 27003KT 10/08 A2998 RMK A01 T00960082  RH  091%=      5-min Rain = 0
KES1 241336Z 27004KT 10/08 A2998 RMK A01 T00960083  RH  091%=      5-min Rain = 0
KES1 241337Z 28004KT 10/08 A2998 RMK A01 T00960082  RH  091%=      5-min Rain = 0
KES1 241338Z 28004KT 10/08 A2998 RMK A01 T00960082  RH  091%=      5-min Rain = 0
KES1 241339Z 28004KT 10/08 A2998 RMK A01 T00960081  RH  090%=      5-min Rain = 0
KES1 241340Z 28004KT 10/08 A2998 RMK A01 T00960082  RH  091%=      5-min Rain = 0
KES1 241341Z 28003KT 10/08 A2998 RMK A01 T00960082  RH  091%=      5-min Rain = 0
KES1 241342Z 29003KT 10/08 A2998 RMK A01 T00960082  RH  091%=      5-min Rain = 0
KES1 241343Z 29004KT 10/08 A2998 RMK A01 T00970083  RH  091%=      5-min Rain = 0
KES1 241344Z 29004KT 10/08 A2998 RMK A01 T00970083  RH  091%=      5-min Rain = 0
KES1 241345Z 31004KT 10/08 A2998 RMK A01 T00970082  RH  090%=      5-min Rain = 0
KES1 241346Z 31005KT 10/08 A2998 RMK A01 T00980082  RH  090%=      5-min Rain = 0
KES1 241347Z 31005KT 10/08 A2998 RMK A01 T00980083  RH  090%=      5-min Rain = 0
KES1 241348Z 31005KT 10/08 A2998 RMK A01 T00980081  RH  089%=      5-min Rain = 0
KES1 241349Z 31006KT 10/08 A2998 RMK A01 T00990083  RH  090%=      5-min Rain = 0
KES1 241350Z 31007KT 10/08 A2998 RMK A01 T00990083  RH  090%=      5-min Rain = 0
KES1 241351Z 31007KT 10/08 A2998 RMK A01 T00990082  RH  089%=      5-min Rain = 0
KES1 241352Z 31007KT 10/08 A2998 RMK A01 T01010083  RH  089%=      5-min Rain = 0
KES1 241353Z 31007KT 10/09 A2998 RMK A01 T01030086  RH  089%=      5-min Rain = 0
KES1 241354Z 31007KT 10/09 A2998 RMK A01 T01040087  RH  089%=      5-min Rain = 0
KES1 241355Z 31007KT 11/09 A2998 RMK A01 T01060089  RH  089%=      5-min Rain = 0
KES1 241356Z 30007KT 11/09 A2998 RMK A01 T01060088  RH  088%=      5-min Rain = 0
KES1 241357Z 30005KT 11/09 A2998 RMK A01 T01070087  RH  088%=      5-min Rain = 0
KES1 241358Z 30006KT 11/09 A2999 RMK A01 T01070086  RH  087%=      5-min Rain = 0
KES1 241359Z 29006KT 11/08 A2999 RMK A01 T01060082  RH  085%=      5-min Rain = 0
KES1 241400Z 29007KT 11/08 A2999 RMK A01 T01060083  RH  086%=      5-min Rain = 0
KES1 241401Z 30007KT 11/08 A2999 RMK A01 T01060083  RH  085%=      5-min Rain = 0
KES1 241402Z 30007KT 11/08 A2998 RMK A01 T01060082  RH  085%=      5-min Rain = 0
KES1 241403Z 30007KT 11/08 A2998 RMK A01 T01060083  RH  086%=      5-min Rain = 0
KES1 241404Z 30006KT 11/09 A2998 RMK A01 T01070086  RH  087%=      5-min Rain = 0
KES1 241405Z 30007KT 11/09 A2998 RMK A01 T01090089  RH  088%=      5-min Rain = 0
KES1 241406Z 30007KT 11/09 A2998 RMK A01 T01090087  RH  086%=      5-min Rain = 0
KES1 241407Z 30006KT 11/09 A2998 RMK A01 T01090088  RH  087%=      5-min Rain = 0
KES1 241408Z 30006KT 11/09 A2998 RMK A01 T01090085  RH  086%=      5-min Rain = 0
KES1 241409Z 29005KT 11/09 A2998 RMK A01 T01090086  RH  086%=      5-min Rain = 0
KES1 241410Z 31004KT 11/09 A2998 RMK A01 T01100088  RH  086%=      5-min Rain = 0
KES1 241411Z 30004KT 11/09 A2998 RMK A01 T01110092  RH  088%=      5-min Rain = 0
KES1 241412Z 31005KT 11/09 A2998 RMK A01 T01120090  RH  086%=      5-min Rain = 0
KES1 241413Z 30005KT 11/09 A2998 RMK A01 T01130087  RH  084%=      5-min Rain = 0
KES1 241414Z 31006KT 11/09 A2998 RMK A01 T01130087  RH  084%=      5-min Rain = 0
KES1 241415Z 31006KT 11/09 A2998 RMK A01 T01140088  RH  084%=      5-min Rain = 0
KES1 241416Z 31006KT 12/09 A2998 RMK A01 T01150090  RH  084%=      5-min Rain = 0
KES1 241417Z 33005KT 12/09 A2998 RMK A01 T01170094  RH  086%=      5-min Rain = 0
KES1 241418Z 33004KT 12/09 A2998 RMK A01 T01170087  RH  082%=      5-min Rain = 0
KES1 241419Z 32004KT 12/09 A2998 RMK A01 T01160088  RH  083%=      5-min Rain = 0
KES1 241420Z 32004KT 12/09 A2998 RMK A01 T01160092  RH  085%=      5-min Rain = 0
KES1 241432Z 33006KT 12/09 A2998 RMK A01 T01200091  RH  083%=      5-min Rain = 0
KES1 241433Z 34006KT 12/10 A2998 RMK A01 T01200096  RH  085%=      5-min Rain = 0
KES1 241434Z 34008KT 12/09 A2998 RMK A01 T01210092  RH  082%=      5-min Rain = 0
KES1 241435Z 34007KT 12/09 A2998 RMK A01 T01210085  RH  078%=      5-min Rain = 0
KES1 241436Z 34007KT 12/09 A2998 RMK A01 T01200089  RH  081%=      5-min Rain = 0
KES1 241437Z 33008KT 12/09 A2998 RMK A01 T01200088  RH  080%=      5-min Rain = 0
KES1 241438Z 33007KT 12/09 A2998 RMK A01 T01200085  RH  079%=      5-min Rain = 0
KES1 241439Z 33006KT 12/09 A2998 RMK A01 T01210085  RH  079%=      5-min Rain = 0
KES1 241440Z 33006KT 12/09 A2998 RMK A01 T01210090  RH  081%=      5-min Rain = 0
KES1 241441Z 35006KT 12/09 A2998 RMK A01 T01230091  RH  081%=      5-min Rain = 0
KES1 241442Z 35008KT 12/08 A2998 RMK A01 T01230083  RH  076%=      5-min Rain = 0
KES1 241443Z 34007KT 12/09 A2997 RMK A01 T01230085  RH  078%=      5-min Rain = 0
KES1 241444Z 33008KT 12/09 A2997 RMK A01 T01230086  RH  078%=      5-min Rain = 0
KES1 241445Z 33007KT 12/09 A2997 RMK A01 T01230087  RH  079%=      5-min Rain = 0
KES1 241446Z 34007KT 12/09 A2997 RMK A01 T01240087  RH  078%=      5-min Rain = 0
KES1 241447Z 34006KT 12/08 A2997 RMK A01 T01230083  RH  076%=      5-min Rain = 0
KES1 241448Z 33007KT 12/09 A2997 RMK A01 T01240087  RH  078%=      5-min Rain = 0
KES1 241449Z 34008KT 13/09 A2997 RMK A01 T01250085  RH  077%=      5-min Rain = 0
KES1 241450Z 33007KT 13/08 A2997 RMK A01 T01250083  RH  075%=      5-min Rain = 0
KES1 241451Z 33005KT 13/09 A2997 RMK A01 T01260086  RH  077%=      5-min Rain = 0
KES1 241452Z 33008KT 13/09 A2997 RMK A01 T01270088  RH  077%=      5-min Rain = 0
KES1 241453Z 33008KT 13/09 A2997 RMK A01 T01280086  RH  076%=      5-min Rain = 0
KES1 241454Z 33008KT 13/09 A2997 RMK A01 T01280087  RH  076%=      5-min Rain = 0
KES1 241455Z 33006KT 13/09 A2997 RMK A01 T01290089  RH  076%=      5-min Rain = 0
KES1 241456Z 34008KT 13/10 A2997 RMK A01 T01310095  RH  079%=      5-min Rain = 0
KES1 241457Z 34007KT 13/09 A2997 RMK A01 T01320086  RH  074%=      5-min Rain = 0
KES1 241458Z 34007KT 13/09 A2997 RMK A01 T01310089  RH  075%=      5-min Rain = 0
KES1 241459Z 34006KT 13/09 A2997 RMK A01 T01310089  RH  076%=      5-min Rain = 0
KES1 241501Z 32010KT 13/09 A2997 RMK A01 T01340093  RH  076%=      5-min Rain = 0
KES1 241502Z 33009KT 14/09 A2997 RMK A01 T01360087  RH  072%=      5-min Rain = 0
KES1 241503Z 33008KT 14/08 A2997 RMK A01 T01350082  RH  070%=      5-min Rain = 0
KES1 241504Z 33007KT 13/09 A2997 RMK A01 T01340085  RH  072%=      5-min Rain = 0
KES1 241505Z 33008KT 13/08 A2997 RMK A01 T01340083  RH  071%=      5-min Rain = 0
KES1 241506Z 34008KT 13/08 A2997 RMK A01 T01340081  RH  070%=      5-min Rain = 0
KES1 241507Z 35008KT 13/08 A2996 RMK A01 T01330080  RH  070%=      5-min Rain = 0
KES1 241508Z 33008KT 13/09 A2996 RMK A01 T01330085  RH  072%=      5-min Rain = 0
KES1 241509Z 33008KT 13/08 A2996 RMK A01 T01340084  RH  072%=      5-min Rain = 0
KES1 241510Z 34007KT 14/09 A2996 RMK A01 T01360088  RH  073%=      5-min Rain = 0
KES1 241511Z 35007KT 14/08 A2996 RMK A01 T01370082  RH  069%=      5-min Rain = 0
KES1 241512Z 34005KT 14/08 A2996 RMK A01 T01370082  RH  069%=      5-min Rain = 0
KES1 241513Z 34006KT 14/09 A2996 RMK A01 T01370085  RH  071%=      5-min Rain = 0
KES1 241514Z 35008KT 14/09 A2996 RMK A01 T01380086  RH  071%=      5-min Rain = 0
KES1 241515Z 00006KT 14/08 A2996 RMK A01 T01390079  RH  067%=      5-min Rain = 0
KES1 241516Z 35006KT 14/08 A2996 RMK A01 T01390084  RH  069%=      5-min Rain = 0
KES1 241517Z 33005KT 14/08 A2996 RMK A01 T01390084  RH  069%=      5-min Rain = 0
KES1 241518Z 33006KT 14/09 A2996 RMK A01 T01400090  RH  071%=      5-min Rain = 0
KES1 241519Z 33008KT 14/09 A2996 RMK A01 T01420088  RH  070%=      5-min Rain = 0
KES1 241520Z 32007KT 14/08 A2996 RMK A01 T01420078  RH  065%=      5-min Rain = 0
KES1 241521Z 34008KT 14/09 A2996 RMK A01 T01430085  RH  068%=      5-min Rain = 0
KES1 241522Z 34009KT 14/08 A2996 RMK A01 T01430079  RH  065%=      5-min Rain = 0
KES1 241523Z 00006KT 14/08 A2996 RMK A01 T01420081  RH  067%=      5-min Rain = 0
KES1 241524Z 35007KT 14/09 A2996 RMK A01 T01430089  RH  070%=      5-min Rain = 0
KES1 241525Z 35009KT 15/09 A2996 RMK A01 T01460090  RH  069%=      5-min Rain = 0
KES1 241531Z 33007KT 15/08 A2996 RMK A01 T01460082  RH  066%=      5-min Rain = 0
KES1 241532Z 35008KT 15/08 A2996 RMK A01 T01460080  RH  064%=      5-min Rain = 0
KES1 241533Z 34006KT 15/08 A2996 RMK A01 T01460083  RH  066%=      5-min Rain = 0
KES1 241534Z 33007KT 15/09 A2996 RMK A01 T01470086  RH  067%=      5-min Rain = 0
KES1 241535Z 33007KT 15/08 A2996 RMK A01 T01480082  RH  065%=      5-min Rain = 0
KES1 241536Z 33005KT 15/08 A2996 RMK A01 T01470075  RH  062%=      5-min Rain = 0
KES1 241537Z 33005KT 15/08 A2996 RMK A01 T01470078  RH  063%=      5-min Rain = 0
KES1 241538Z 31007KT 15/09 A2996 RMK A01 T01480086  RH  066%=      5-min Rain = 0
KES1 241539Z 33008KT 15/09 A2996 RMK A01 T01510085  RH  065%=      5-min Rain = 0
KES1 241540Z 33008KT 15/09 A2996 RMK A01 T01520091  RH  067%=      5-min Rain = 0
KES1 241541Z 33008KT 15/08 A2996 RMK A01 T01520084  RH  064%=      5-min Rain = 0
KES1 241542Z 34007KT 15/09 A2996 RMK A01 T01520085  RH  064%=      5-min Rain = 0
KES1 241543Z 34006KT 15/08 A2996 RMK A01 T01510081  RH  063%=      5-min Rain = 0
KES1 241544Z 34008KT 15/08 A2997 RMK A01 T01510082  RH  064%=      5-min Rain = 0
KES1 241545Z 32007KT 15/08 A2997 RMK A01 T01510079  RH  062%=      5-min Rain = 0
KES1 241546Z 31008KT 15/09 A2997 RMK A01 T01520088  RH  066%=      5-min Rain = 0
KES1 241547Z 33007KT 15/09 A2997 RMK A01 T01530086  RH  064%=      5-min Rain = 0
KES1 241548Z 33007KT 16/09 A2997 RMK A01 T01550086  RH  064%=      5-min Rain = 0
KES1 241549Z 32006KT 16/08 A2997 RMK A01 T01550078  RH  060%=      5-min Rain = 0
KES1 241550Z 34006KT 15/08 A2997 RMK A01 T01540078  RH  061%=      5-min Rain = 0
KES1 241551Z 35005KT 15/08 A2997 RMK A01 T01540082  RH  062%=      5-min Rain = 0
KES1 241552Z 35005KT 15/07 A2997 RMK A01 T01540073  RH  058%=      5-min Rain = 0
KES1 241553Z 35004KT 15/08 A2997 RMK A01 T01530076  RH  060%=      5-min Rain = 0
KES1 241554Z 34005KT 15/08 A2997 RMK A01 T01540080  RH  062%=      5-min Rain = 0
KES1 241555Z 35003KT 15/07 A2997 RMK A01 T01540072  RH  058%=      5-min Rain = 0
KES1 241556Z 02004KT 16/07 A2998 RMK A01 T01550073  RH  058%=      5-min Rain = 0
KES1 241557Z 03005KT 16/07 A2998 RMK A01 T01550073  RH  058%=      5-min Rain = 0
KES1 241558Z 05003KT 16/07 A2998 RMK A01 T01570072  RH  057%=      5-min Rain = 0
KES1 241559Z 02003KT 16/07 A2998 RMK A01 T01590070  RH  056%=      5-min Rain = 0
KES1 241600Z 02002KT 16/07 A2998 RMK A01 T01600071  RH  055%=      5-min Rain = 0
KES1 241601Z 02006KT 16/07 A2998 RMK A01 T01600072  RH  056%=      5-min Rain = 0
KES1 241602Z 02005KT 16/07 A2998 RMK A01 T01600070  RH  055%=      5-min Rain = 0
KES1 241603Z 04004KT 16/07 A2998 RMK A01 T01600070  RH  055%=      5-min Rain = 0
KES1 241604Z 04003KT 16/07 A2998 RMK A01 T01600072  RH  056%=      5-min Rain = 0
KES1 241605Z 04003KT 16/08 A2998 RMK A01 T01620079  RH  058%=      5-min Rain = 0
KES1 241606Z 04003KT 16/07 A2998 RMK A01 T01640073  RH  055%=      5-min Rain = 0
KES1 241607Z 05003KT 16/06 A2998 RMK A01 T01640064  RH  052%=      5-min Rain = 0
KES1 241608Z 02002KT 16/07 A2999 RMK A01 T01620071  RH  055%=      5-min Rain = 0
KES1 241609Z 33003KT 16/08 A2999 RMK A01 T01630078  RH  057%=      5-min Rain = 0
KES1 241610Z 32003KT 16/07 A2999 RMK A01 T01620071  RH  055%=      5-min Rain = 0
KES1 241611Z 26003KT 16/07 A2999 RMK A01 T01610071  RH  055%=      5-min Rain = 0
KES1 241612Z 21002KT 16/07 A2999 RMK A01 T01590065  RH  054%=      5-min Rain = 0
KES1 241613Z 21002KT 16/07 A2999 RMK A01 T01580072  RH  057%=      5-min Rain = 0
KES1 241614Z 35002KT 16/08 A2999 RMK A01 T01590075  RH  057%=      5-min Rain = 0
KES1 241615Z 03004KT 16/08 A2999 RMK A01 T01610078  RH  058%=      5-min Rain = 0
KES1 241616Z 00005KT 16/08 A2999 RMK A01 T01630083  RH  059%=      5-min Rain = 0
KES1 241617Z 01004KT 17/08 A2999 RMK A01 T01650081  RH  058%=      5-min Rain = 0
KES1 241618Z 02003KT 16/07 A2999 RMK A01 T01640067  RH  052%=      5-min Rain = 0
KES1 241619Z 35002KT 16/06 A2999 RMK A01 T01620063  RH  052%=      5-min Rain = 0
KES1 241620Z 33003KT 16/07 A2999 RMK A01 T01610067  RH  054%=      5-min Rain = 0
KES1 241621Z 33003KT 16/08 A2999 RMK A01 T01600075  RH  057%=      5-min Rain = 0
KES1 241622Z 01004KT 16/08 A2999 RMK A01 T01610079  RH  058%=      5-min Rain = 0
KES1 241623Z 01003KT 16/07 A2999 RMK A01 T01610068  RH  054%=      5-min Rain = 0
KES1 241624Z 03003KT 16/08 A2999 RMK A01 T01620075  RH  056%=      5-min Rain = 0
KES1 241625Z 06004KT 16/07 A2999 RMK A01 T01630068  RH  054%=      5-min Rain = 0
KES1 241626Z 07003KT 16/07 A2999 RMK A01 T01630068  RH  053%=      5-min Rain = 0
KES1 241627Z 07003KT 16/07 A2999 RMK A01 T01640067  RH  053%=      5-min Rain = 0
KES1 241628Z 08004KT 17/07 A2999 RMK A01 T01650068  RH  053%=      5-min Rain = 0
KES1 241629Z 07004KT 17/07 A2999 RMK A01 T01650072  RH  054%=      5-min Rain = 0
KES1 241630Z 03002KT 17/07 A2999 RMK A01 T01660073  RH  054%=      5-min Rain = 0
KES1 241631Z 00002KT 17/07 A2999 RMK A01 T01660066  RH  052%=      5-min Rain = 0
KES1 241632Z 33001KT 17/07 A2999 RMK A01 T01650066  RH  052%=      5-min Rain = 0
KES1 241633Z 32003KT 17/07 A2999 RMK A01 T01650066  RH  052%=      5-min Rain = 0
KES1 241634Z 31003KT 17/07 A2999 RMK A01 T01650071  RH  054%=      5-min Rain = 0
KES1 241635Z 26002KT 17/06 A2999 RMK A01 T01670061  RH  050%=      5-min Rain = 0
KES1 241636Z 26002KT 17/06 A2999 RMK A01 T01670055  RH  048%=      5-min Rain = 0
KES1 241637Z 33000KT 17/05 A2999 RMK A01 T01670052  RH  047%=      5-min Rain = 0
KES1 241638Z 34001KT 17/06 A2999 RMK A01 T01670057  RH  048%=      5-min Rain = 0
KES1 241639Z 33004KT 17/07 A2999 RMK A01 T01680071  RH  053%=      5-min Rain = 0
KES1 241640Z 32006KT 17/07 A2999 RMK A01 T01690069  RH  052%=      5-min Rain = 0
KES1 241641Z 32004KT 17/08 A2999 RMK A01 T01680076  RH  054%=      5-min Rain = 0
KES1 241642Z 33005KT 17/07 A2999 RMK A01 T01680066  RH  051%=      5-min Rain = 0
KES1 241643Z 34005KT 17/07 A2999 RMK A01 T01670069  RH  052%=      5-min Rain = 0
KES1 241644Z 34003KT 17/07 A2999 RMK A01 T01660066  RH  052%=      5-min Rain = 0
KES1 241645Z 33003KT 17/06 A2998 RMK A01 T01650063  RH  051%=      5-min Rain = 0
KES1 241646Z 34001KT 17/07 A2998 RMK A01 T01650065  RH  052%=      5-min Rain = 0
KES1 241647Z 33003KT 17/07 A2998 RMK A01 T01650066  RH  052%=      5-min Rain = 0
KES1 241648Z 33005KT 17/07 A2998 RMK A01 T01660074  RH  055%=      5-min Rain = 0
KES1 241649Z 33004KT 17/08 A2998 RMK A01 T01670076  RH  055%=      5-min Rain = 0
KES1 241650Z 32003KT 17/07 A2998 RMK A01 T01670074  RH  054%=      5-min Rain = 0
KES1 241651Z 32002KT 17/06 A2998 RMK A01 T01690061  RH  049%=      5-min Rain = 0
KES1 241652Z 31001KT 17/06 A2998 RMK A01 T01690062  RH  049%=      5-min Rain = 0
KES1 241653Z 26001KT 17/06 A2998 RMK A01 T01700064  RH  050%=      5-min Rain = 0
KES1 241654Z 26002KT 17/06 A2998 RMK A01 T01700062  RH  049%=      5-min Rain = 0
KES1 241655Z 32001KT 17/06 A2998 RMK A01 T01700062  RH  049%=      5-min Rain = 0
KES1 241656Z 33003KT 17/07 A2998 RMK A01 T01710071  RH  052%=      5-min Rain = 0
KES1 241657Z 30005KT 17/08 A2998 RMK A01 T01720076  RH  053%=      5-min Rain = 0
KES1 241658Z 30003KT 17/06 A2998 RMK A01 T01720058  RH  047%=      5-min Rain = 0
KES1 241659Z 34004KT 17/07 A2998 RMK A01 T01710066  RH  050%=      5-min Rain = 0
KES1 241700Z 35003KT 17/07 A2998 RMK A01 T01710071  RH  052%=      5-min Rain = 0
KES1 241701Z 36005KT 17/07 A2998 RMK A01 T01710073  RH  052%=      5-min Rain = 0
KES1 241702Z 34003KT 17/07 A2998 RMK A01 T01710069  RH  051%=      5-min Rain = 0
KES1 241703Z 32003KT 17/07 A2998 RMK A01 T01700072  RH  053%=      5-min Rain = 0
KES1 241704Z 29005KT 17/07 A2998 RMK A01 T01710069  RH  051%=      5-min Rain = 0
KES1 241705Z 30003KT 17/07 A2998 RMK A01 T01720071  RH  051%=      5-min Rain = 0
KES1 241706Z 28002KT 17/07 A2998 RMK A01 T01730065  RH  049%=      5-min Rain = 0
KES1 241707Z 26003KT 17/06 A2997 RMK A01 T01730057  RH  046%=      5-min Rain = 0
KES1 241708Z 22004KT 17/07 A2997 RMK A01 T01720071  RH  051%=      5-min Rain = 0
KES1 241709Z 22003KT 17/06 A2997 RMK A01 T01730060  RH  047%=      5-min Rain = 0
KES1 241710Z 23002KT 17/06 A2997 RMK A01 T01730060  RH  048%=      5-min Rain = 0
KES1 241711Z 20001KT 17/06 A2997 RMK A01 T01720064  RH  049%=      5-min Rain = 0
KES1 241712Z 30002KT 17/08 A2997 RMK A01 T01740077  RH  053%=      5-min Rain = 0
KES1 241713Z 33003KT 18/07 A2997 RMK A01 T01760069  RH  049%=      5-min Rain = 0
KES1 241714Z 32002KT 18/06 A2997 RMK A01 T01750064  RH  048%=      5-min Rain = 0
KES1 241715Z 31004KT 17/07 A2997 RMK A01 T01740073  RH  052%=      5-min Rain = 0
KES1 241716Z 28002KT 17/07 A2997 RMK A01 T01740074  RH  052%=      5-min Rain = 0
KES1 241717Z 30001KT 17/07 A2997 RMK A01 T01740069  RH  050%=      5-min Rain = 0
KES1 241718Z 33003KT 18/09 A2997 RMK A01 T01760085  RH  055%=      5-min Rain = 0
KES1 241719Z 35005KT 18/08 A2997 RMK A01 T01770078  RH  052%=      5-min Rain = 0
KES1 241720Z 35006KT 18/09 A2997 RMK A01 T01780092  RH  057%=      5-min Rain = 0
KES1 241721Z 00005KT 18/08 A2997 RMK A01 T01780083  RH  054%=      5-min Rain = 0
KES1 241722Z 34006KT 18/08 A2996 RMK A01 T01770083  RH  054%=      5-min Rain = 0
KES1 241723Z 32005KT 18/08 A2996 RMK A01 T01750076  RH  052%=      5-min Rain = 0
KES1 241724Z 01006KT 18/08 A2996 RMK A01 T01750082  RH  054%=      5-min Rain = 0
KES1 241725Z 03003KT 18/07 A2996 RMK A01 T01750070  RH  050%=      5-min Rain = 0
KES1 241726Z 02002KT 18/08 A2996 RMK A01 T01750075  RH  052%=      5-min Rain = 0
KES1 241727Z 01003KT 18/08 A2996 RMK A01 T01760075  RH  052%=      5-min Rain = 0
KES1 241728Z 00002KT 18/07 A2996 RMK A01 T01760072  RH  051%=      5-min Rain = 0
KES1 241729Z 27002KT 18/08 A2996 RMK A01 T01760080  RH  053%=      5-min Rain = 0
KES1 241730Z 32006KT 18/09 A2996 RMK A01 T01780090  RH  056%=      5-min Rain = 0
KES1 241731Z 32005KT 18/08 A2996 RMK A01 T01790077  RH  051%=      5-min Rain = 0
KES1 241732Z 30006KT 18/08 A2996 RMK A01 T01770080  RH  053%=      5-min Rain = 0
KES1 241733Z 29004KT 18/07 A2996 RMK A01 T01770074  RH  051%=      5-min Rain = 0
KES1 241734Z 30004KT 18/07 A2995 RMK A01 T01760073  RH  051%=      5-min Rain = 0
KES1 241735Z 36005KT 18/09 A2995 RMK A01 T01760085  RH  055%=      5-min Rain = 0
KES1 241736Z 36003KT 18/08 A2995 RMK A01 T01770084  RH  054%=      5-min Rain = 0
KES1 241737Z 35004KT 18/08 A2995 RMK A01 T01770077  RH  052%=      5-min Rain = 0
KES1 241738Z 34004KT 18/08 A2995 RMK A01 T01770078  RH  052%=      5-min Rain = 0
KES1 241739Z 34004KT 18/08 A2995 RMK A01 T01750076  RH  052%=      5-min Rain = 0
KES1 241740Z 02002KT 18/07 A2995 RMK A01 T01750071  RH  051%=      5-min Rain = 0
KES1 241741Z 33004KT 17/07 A2995 RMK A01 T01740072  RH  051%=      5-min Rain = 0
KES1 241742Z 31005KT 18/09 A2995 RMK A01 T01750087  RH  056%=      5-min Rain = 0
KES1 241743Z 29003KT 18/08 A2995 RMK A01 T01770077  RH  052%=      5-min Rain = 0
KES1 241744Z 28004KT 18/08 A2995 RMK A01 T01770080  RH  053%=      5-min Rain = 0
KES1 241745Z 28004KT 18/07 A2994 RMK A01 T01780074  RH  051%=      5-min Rain = 0
KES1 241746Z 30006KT 18/08 A2994 RMK A01 T01780079  RH  052%=      5-min Rain = 0
KES1 241747Z 30006KT 18/08 A2994 RMK A01 T01780080  RH  053%=      5-min Rain = 0
KES1 241748Z 30007KT 18/08 A2994 RMK A01 T01770081  RH  053%=      5-min Rain = 0
KES1 241749Z 30006KT 18/09 A2994 RMK A01 T01780086  RH  055%=      5-min Rain = 0
KES1 241750Z 26006KT 18/08 A2994 RMK A01 T01790082  RH  053%=      5-min Rain = 0
KES1 241751Z 27005KT 18/08 A2994 RMK A01 T01810083  RH  053%=      5-min Rain = 0
KES1 241752Z 30004KT 18/09 A2994 RMK A01 T01830092  RH  055%=      5-min Rain = 0
KES1 241753Z 28002KT 19/10 A2994 RMK A01 T01850098  RH  057%=      5-min Rain = 0
KES1 241754Z 28004KT 19/09 A2994 RMK A01 T01860086  RH  052%=      5-min Rain = 0
KES1 241755Z 32006KT 19/09 A2994 RMK A01 T01870091  RH  054%=      5-min Rain = 0
KES1 241756Z 35008KT 19/08 A2994 RMK A01 T01850083  RH  051%=      5-min Rain = 0
KES1 241757Z 34005KT 18/07 A2994 RMK A01 T01810073  RH  049%=      5-min Rain = 0
KES1 241758Z 31003KT 18/07 A2994 RMK A01 T01780073  RH  050%=      5-min Rain = 0
KES1 241759Z 32007KT 18/09 A2993 RMK A01 T01780085  RH  055%=      5-min Rain = 0
KES1 241800Z 33008KT 18/10 A2993 RMK A01 T01800096  RH  058%=      5-min Rain = 0
KES1 241801Z 34008KT 18/10 A2993 RMK A01 T01820101  RH  059%=      5-min Rain = 0
KES1 241802Z 33008KT 18/10 A2993 RMK A01 T01840097  RH  057%=      5-min Rain = 0
KES1 241803Z 36007KT 18/10 A2993 RMK A01 T01840102  RH  059%=      5-min Rain = 0
KES1 241804Z 36008KT 19/09 A2993 RMK A01 T01850093  RH  055%=      5-min Rain = 0
KES1 241805Z 35008KT 19/09 A2993 RMK A01 T01850091  RH  055%=      5-min Rain = 0
KES1 241806Z 35008KT 18/09 A2993 RMK A01 T01830091  RH  055%=      5-min Rain = 0
KES1 241807Z 01005KT 18/09 A2993 RMK A01 T01810091  RH  055%=      5-min Rain = 0
KES1 241808Z 02006KT 18/09 A2993 RMK A01 T01810088  RH  054%=      5-min Rain = 0
KES1 241809Z 34004KT 18/08 A2993 RMK A01 T01810075  RH  050%=      5-min Rain = 0
KES1 241810Z 33003KT 18/08 A2993 RMK A01 T01800079  RH  052%=      5-min Rain = 0
KES1 241811Z 36004KT 18/09 A2993 RMK A01 T01800093  RH  057%=      5-min Rain = 0
KES1 241812Z 35004KT 18/09 A2993 RMK A01 T01820088  RH  054%=      5-min Rain = 0
KES1 241813Z 35004KT 18/09 A2993 RMK A01 T01820089  RH  054%=      5-min Rain = 0
KES1 241814Z 33005KT 18/09 A2993 RMK A01 T01820093  RH  056%=      5-min Rain = 0
KES1 241815Z 32004KT 18/09 A2992 RMK A01 T01820089  RH  055%=      5-min Rain = 0
KES1 241816Z 31004KT 18/09 A2992 RMK A01 T01820092  RH  056%=      5-min Rain = 0
KES1 241817Z 30005KT 18/10 A2992 RMK A01 T01840101  RH  058%=      5-min Rain = 0
KES1 241818Z 30008KT 19/10 A2992 RMK A01 T01870100  RH  057%=      5-min Rain = 0
KES1 241819Z 32007KT 19/10 A2992 RMK A01 T01890099  RH  056%=      5-min Rain = 0
KES1 241820Z 30005KT 19/10 A2992 RMK A01 T01890104  RH  058%=      5-min Rain = 0
KES1 241821Z 30005KT 19/12 A2992 RMK A01 T01910115  RH  061%=      5-min Rain = 0
KES1 241822Z 29007KT 19/11 A2992 RMK A01 T01940105  RH  056%=      5-min Rain = 0
KES1 241823Z 28007KT 20/09 A2991 RMK A01 T01950093  RH  052%=      5-min Rain = 0
KES1 241824Z 29006KT 19/08 A2991 RMK A01 T01930084  RH  049%=      5-min Rain = 0
KES1 241825Z 29006KT 19/09 A2991 RMK A01 T01920094  RH  053%=      5-min Rain = 0
KES1 241826Z 29004KT 19/09 A2991 RMK A01 T01920092  RH  052%=      5-min Rain = 0
KES1 241827Z 28005KT 19/09 A2991 RMK A01 T01920090  RH  051%=      5-min Rain = 0
KES1 241828Z 28005KT 19/09 A2991 RMK A01 T01930090  RH  051%=      5-min Rain = 0
KES1 241829Z 31005KT 19/10 A2991 RMK A01 T01930096  RH  053%=      5-min Rain = 0
KES1 241830Z 32008KT 19/10 A2991 RMK A01 T01930100  RH  055%=      5-min Rain = 0
KES1 241831Z 31006KT 19/10 A2991 RMK A01 T01930095  RH  053%=      5-min Rain = 0
KES1 241832Z 31006KT 19/09 A2991 RMK A01 T01920093  RH  053%=      5-min Rain = 0
KES1 241833Z 35008KT 19/10 A2991 RMK A01 T01920104  RH  057%=      5-min Rain = 0
KES1 241834Z 00006KT 19/10 A2991 RMK A01 T01920098  RH  055%=      5-min Rain = 0
KES1 241835Z 34004KT 19/09 A2991 RMK A01 T01910089  RH  052%=      5-min Rain = 0
KES1 241836Z 00007G15KT 19/10 A2991 RMK A01 T01890096  RH  054%=      5-min Rain = 0
KES1 241837Z 34007KT 19/11 A2991 RMK A01 T01910109  RH  059%=      5-min Rain = 0
KES1 241838Z 34009G14KT 19/11 A2991 RMK A01 T01930110  RH  059%=      5-min Rain = 0
KES1 241839Z 30007KT 19/12 A2991 RMK A01 T01940115  RH  060%=      5-min Rain = 0
KES1 241840Z 29007KT 20/11 A2991 RMK A01 T01970110  RH  057%=      5-min Rain = 0
KES1 241841Z 29007KT 20/10 A2991 RMK A01 T01980103  RH  054%=      5-min Rain = 0
KES1 241842Z 29007KT 20/09 A2991 RMK A01 T01980094  RH  051%=      5-min Rain = 0
KES1 241843Z 30007KT 20/10 A2991 RMK A01 T01980099  RH  053%=      5-min Rain = 0
KES1 241844Z 30007KT 20/10 A2991 RMK A01 T01980100  RH  053%=      5-min Rain = 0
KES1 241845Z 31008KT 20/11 A2991 RMK A01 T01980107  RH  056%=      5-min Rain = 0
KES1 241846Z 33005KT 20/10 A2991 RMK A01 T01970097  RH  052%=      5-min Rain = 0
KES1 241847Z 32007KT 20/11 A2991 RMK A01 T01960109  RH  057%=      5-min Rain = 0
KES1 241848Z 31008KT 20/11 A2991 RMK A01 T01970112  RH  058%=      5-min Rain = 0
KES1 241849Z 30005KT 20/11 A2991 RMK A01 T01990106  RH  055%=      5-min Rain = 0
KES1 241850Z 28005KT 20/10 A2991 RMK A01 T01990098  RH  052%=      5-min Rain = 0
KES1 241851Z 28008KT 20/10 A2991 RMK A01 T01990098  RH  052%=      5-min Rain = 0
KES1 241852Z 28008KT 20/09 A2991 RMK A01 T01990093  RH  050%=      5-min Rain = 0
KES1 241853Z 29008KT 20/09 A2991 RMK A01 T01990093  RH  051%=      5-min Rain = 0
KES1 241854Z 29005KT 20/10 A2991 RMK A01 T01990100  RH  053%=      5-min Rain = 0
KES1 241855Z 24003KT 20/09 A2991 RMK A01 T01980090  RH  050%=      5-min Rain = 0
KES1 241856Z 26003KT 20/09 A2991 RMK A01 T01970091  RH  050%=      5-min Rain = 0
KES1 241857Z 30003KT 20/10 A2991 RMK A01 T01980101  RH  054%=      5-min Rain = 0
KES1 241858Z 33003KT 20/10 A2991 RMK A01 T01980103  RH  054%=      5-min Rain = 0
KES1 241859Z 33004KT 20/11 A2991 RMK A01 T01990107  RH  055%=      5-min Rain = 0
KES1 241900Z 35004KT 20/09 A2991 RMK A01 T01980090  RH  050%=      5-min Rain = 0
KES1 241901Z 30001KT 20/09 A2991 RMK A01 T01950085  RH  049%=      5-min Rain = 0
KES1 241902Z 22002KT 20/10 A2991 RMK A01 T01950096  RH  053%=      5-min Rain = 0
KES1 241903Z 19002KT 20/09 A2991 RMK A01 T01960085  RH  049%=      5-min Rain = 0
KES1 241904Z 24002KT 20/10 A2991 RMK A01 T01960095  RH  052%=      5-min Rain = 0
KES1 241905Z 23003KT 20/10 A299 RMK A01 T01980099  RH  053%=      5-min Rain = 0
KES1 241906Z 25004KT 20/10 A299 RMK A01 T02000100  RH  053%=      5-min Rain = 0
KES1 241907Z 30005KT 20/10 A299 RMK A01 T02010100  RH  052%=      5-min Rain = 0
KES1 241908Z 29002KT 20/09 A299 RMK A01 T02010092  RH  049%=      5-min Rain = 0
KES1 241909Z 28002KT 20/09 A299 RMK A01 T02000094  RH  050%=      5-min Rain = 0
KES1 241910Z 25003KT 20/10 A299 RMK A01 T02000095  RH  051%=      5-min Rain = 0
KES1 241911Z 24003KT 20/09 A299 RMK A01 T01990089  RH  049%=      5-min Rain = 0
KES1 241912Z 25002KT 20/09 A299 RMK A01 T01980090  RH  050%=      5-min Rain = 0
KES1 241913Z 20003KT 20/09 A299 RMK A01 T01980088  RH  049%=      5-min Rain = 0
KES1 241914Z 30003KT 20/09 A299 RMK A01 T01980094  RH  051%=      5-min Rain = 0
KES1 241915Z 33006KT 20/10 A299 RMK A01 T01980100  RH  053%=      5-min Rain = 0
KES1 241916Z 34007KT 20/10 A299 RMK A01 T01990102  RH  054%=      5-min Rain = 0
KES1 241917Z 34006KT 20/11 A299 RMK A01 T01990106  RH  055%=      5-min Rain = 0
KES1 241918Z 34005KT 20/10 A299 RMK A01 T01980099  RH  053%=      5-min Rain = 0
KES1 241919Z 32001KT 20/10 A2989 RMK A01 T01980095  RH  052%=      5-min Rain = 0
KES1 241920Z 36004KT 20/10 A2989 RMK A01 T01980097  RH  052%=      5-min Rain = 0
KES1 241921Z 34004KT 20/09 A2989 RMK A01 T01980094  RH  051%=      5-min Rain = 0
KES1 241922Z 33002KT 20/09 A2989 RMK A01 T01960089  RH  050%=      5-min Rain = 0
KES1 241923Z 01000KT 20/09 A2989 RMK A01 T01960086  RH  049%=      5-min Rain = 0
KES1 241924Z 31002KT 20/11 A2989 RMK A01 T01970105  RH  055%=      5-min Rain = 0
KES1 241925Z 33002KT 20/09 A2989 RMK A01 T01980091  RH  050%=      5-min Rain = 0
KES1 241926Z 35004KT 20/10 A2989 RMK A01 T01990098  RH  052%=      5-min Rain = 0
KES1 241927Z 32005KT 20/11 A2989 RMK A01 T02000110  RH  056%=      5-min Rain = 0
KES1 241928Z 33005KT 20/11 A2989 RMK A01 T02010109  RH  056%=      5-min Rain = 0
KES1 241929Z 35006KT 20/10 A2989 RMK A01 T02010103  RH  053%=      5-min Rain = 0
KES1 241930Z 33002KT 20/09 A2989 RMK A01 T02000094  RH  050%=      5-min Rain = 0
KES1 241931Z 33002KT 20/10 A2989 RMK A01 T01990097  RH  052%=      5-min Rain = 0
KES1 241932Z 30003KT 20/09 A2989 RMK A01 T01990093  RH  050%=      5-min Rain = 0
KES1 241933Z 26002KT 20/09 A2989 RMK A01 T02000093  RH  050%=      5-min Rain = 0
KES1 241934Z 32004KT 20/11 A299 RMK A01 T02010111  RH  056%=      5-min Rain = 0
KES1 241935Z 31003KT 20/11 A299 RMK A01 T02030108  RH  054%=      5-min Rain = 0
KES1 241936Z 33003KT 20/10 A299 RMK A01 T02040103  RH  052%=      5-min Rain = 0
KES1 241937Z 30002KT 20/10 A299 RMK A01 T02040098  RH  050%=      5-min Rain = 0
KES1 241938Z 34003KT 20/09 A299 RMK A01 T02040094  RH  049%=      5-min Rain = 0
KES1 241939Z 33003KT 20/10 A299 RMK A01 T02030101  RH  052%=      5-min Rain = 0
KES1 241940Z 34003KT 20/09 A299 RMK A01 T02020093  RH  050%=      5-min Rain = 0
KES1 241941Z 35002KT 20/09 A299 RMK A01 T02010092  RH  049%=      5-min Rain = 0
KES1 241942Z 32003KT 20/10 A299 RMK A01 T02000097  RH  051%=      5-min Rain = 0
KES1 241943Z 28002KT 20/09 A2989 RMK A01 T02010092  RH  050%=      5-min Rain = 0
KES1 241944Z 25002KT 20/09 A2989 RMK A01 T02020090  RH  049%=      5-min Rain = 0
KES1 241945Z 24001KT 20/09 A2989 RMK A01 T02020090  RH  048%=      5-min Rain = 0
KES1 241946Z 22001KT 20/10 A2989 RMK A01 T02030097  RH  050%=      5-min Rain = 0
KES1 241947Z 21002KT 20/09 A2989 RMK A01 T02040090  RH  048%=      5-min Rain = 0
KES1 241948Z 19002KT 20/09 A2989 RMK A01 T02040088  RH  047%=      5-min Rain = 0
KES1 241949Z 17001KT 20/08 A2989 RMK A01 T02040083  RH  046%=      5-min Rain = 0
KES1 241950Z 17003KT 20/09 A2989 RMK A01 T02040093  RH  049%=      5-min Rain = 0
KES1 241951Z 14002KT 20/09 A2989 RMK A01 T02040086  RH  047%=      5-min Rain = 0
KES1 241952Z 12001KT 21/10 A2989 RMK A01 T02050095  RH  049%=      5-min Rain = 0
KES1 241953Z 10002KT 21/09 A2989 RMK A01 T02060089  RH  047%=      5-min Rain = 0
KES1 241954Z 15003KT 21/10 A2989 RMK A01 T02050095  RH  049%=      5-min Rain = 0
KES1 241955Z 15004KT 21/10 A2989 RMK A01 T02060102  RH  051%=      5-min Rain = 0
KES1 241956Z 16005KT 21/10 A2989 RMK A01 T02090100  RH  050%=      5-min Rain = 0
KES1 241957Z 15005KT 21/10 A2989 RMK A01 T02100099  RH  049%=      5-min Rain = 0
KES1 241958Z 16004KT 21/10 A2989 RMK A01 T02110103  RH  050%=      5-min Rain = 0
KES1 241959Z 16006KT 21/10 A2989 RMK A01 T02110102  RH  050%=      5-min Rain = 0
KES1 242000Z 16005KT 21/10 A2989 RMK A01 T02120098  RH  048%=      5-min Rain = 0
KES1 242001Z 15005KT 21/10 A2989 RMK A01 T02120100  RH  049%=      5-min Rain = 0
KES1 242002Z 15005KT 21/10 A2989 RMK A01 T02120099  RH  049%=      5-min Rain = 0
KES1 242003Z 16005KT 21/10 A2989 RMK A01 T02110098  RH  048%=      5-min Rain = 0
KES1 242004Z 16004KT 21/10 A2989 RMK A01 T02100098  RH  049%=      5-min Rain = 0
KES1 242005Z 18004KT 21/10 A2989 RMK A01 T02100100  RH  049%=      5-min Rain = 0
KES1 242006Z 19005KT 21/10 A2989 RMK A01 T02090101  RH  050%=      5-min Rain = 0
KES1 242007Z 19005KT 21/09 A2989 RMK A01 T02090093  RH  047%=      5-min Rain = 0
KES1 242008Z 18004KT 21/10 A2988 RMK A01 T02070095  RH  048%=      5-min Rain = 0
KES1 242009Z 20003KT 21/09 A2988 RMK A01 T02060091  RH  048%=      5-min Rain = 0
KES1 242010Z 16004KT 21/10 A2988 RMK A01 T02050095  RH  049%=      5-min Rain = 0
KES1 242011Z 14005KT 21/10 A2988 RMK A01 T02060102  RH  051%=      5-min Rain = 0
KES1 242012Z 15006KT 21/10 A2988 RMK A01 T02080098  RH  049%=      5-min Rain = 0
KES1 242013Z 16004KT 21/09 A2988 RMK A01 T02080089  RH  046%=      5-min Rain = 0
KES1 242014Z 17004KT 21/10 A2988 RMK A01 T02070095  RH  049%=      5-min Rain = 0
KES1 242015Z 17004KT 21/09 A2988 RMK A01 T02060090  RH  047%=      5-min Rain = 0
KES1 242016Z 15002KT 21/09 A2988 RMK A01 T02050091  RH  048%=      5-min Rain = 0
KES1 242017Z 16002KT 21/09 A2988 RMK A01 T02050089  RH  047%=      5-min Rain = 0
KES1 242018Z 13004KT 21/09 A2988 RMK A01 T02050094  RH  049%=      5-min Rain = 0
KES1 242019Z 14003KT 21/09 A2988 RMK A01 T02060093  RH  048%=      5-min Rain = 0
KES1 242020Z 11001KT 21/09 A2988 RMK A01 T02060094  RH  049%=      5-min Rain = 0
KES1 242021Z 10004KT 21/10 A2988 RMK A01 T02070097  RH  049%=      5-min Rain = 0
KES1 242022Z 11003KT 21/09 A2988 RMK A01 T02070094  RH  048%=      5-min Rain = 0
KES1 242023Z 14003KT 21/10 A2988 RMK A01 T02080095  RH  048%=      5-min Rain = 0
KES1 242024Z 13004KT 21/10 A2988 RMK A01 T02090104  RH  051%=      5-min Rain = 0
KES1 242025Z 13003KT 21/10 A2988 RMK A01 T02100097  RH  048%=      5-min Rain = 0
KES1 242026Z 14003KT 21/10 A2988 RMK A01 T02100095  RH  048%=      5-min Rain = 0
KES1 242027Z 11004KT 21/10 A2988 RMK A01 T02100100  RH  049%=      5-min Rain = 0
KES1 242028Z 11003KT 21/10 A2988 RMK A01 T02110100  RH  049%=      5-min Rain = 0
KES1 242029Z 07003KT 21/10 A2988 RMK A01 T02110099  RH  049%=      5-min Rain = 0
KES1 242030Z 06001KT 21/09 A2988 RMK A01 T02110093  RH  047%=      5-min Rain = 0
KES1 242031Z 06001KT 21/10 A2988 RMK A01 T02100098  RH  049%=      5-min Rain = 0
KES1 242032Z 06001KT 21/10 A2988 RMK A01 T02100100  RH  049%=      5-min Rain = 0
KES1 242033Z 13002KT 21/09 A2988 RMK A01 T02100094  RH  047%=      5-min Rain = 0
KES1 242034Z 14004KT 21/10 A2988 RMK A01 T02100096  RH  048%=      5-min Rain = 0
KES1 242035Z 16003KT 21/10 A2988 RMK A01 T02110097  RH  048%=      5-min Rain = 0
KES1 242036Z 12004KT 21/10 A2988 RMK A01 T02110104  RH  050%=      5-min Rain = 0
KES1 242037Z 12005KT 21/10 A2988 RMK A01 T02130101  RH  049%=      5-min Rain = 0
KES1 242038Z 14005KT 21/10 A2988 RMK A01 T02130098  RH  048%=      5-min Rain = 0
KES1 242039Z 15009KT 21/10 A2988 RMK A01 T02130096  RH  047%=      5-min Rain = 0
KES1 242040Z 18006KT 21/10 A2988 RMK A01 T02120101  RH  049%=      5-min Rain = 0
KES1 242041Z 18003KT 21/11 A2988 RMK A01 T02120105  RH  050%=      5-min Rain = 0
KES1 242042Z 22001KT 21/10 A2988 RMK A01 T02130099  RH  048%=      5-min Rain = 0
KES1 242043Z 21001KT 21/10 A2988 RMK A01 T02130104  RH  050%=      5-min Rain = 0
KES1 242044Z 22002KT 21/11 A2988 RMK A01 T02140110  RH  051%=      5-min Rain = 0
KES1 242045Z 26004KT 22/10 A2988 RMK A01 T02150100  RH  048%=      5-min Rain = 0
KES1 242046Z 25004KT 22/09 A2988 RMK A01 T02150094  RH  046%=      5-min Rain = 0
KES1 242047Z 25004KT 22/10 A2988 RMK A01 T02150095  RH  046%=      5-min Rain = 0
KES1 242048Z 28002KT 22/09 A2988 RMK A01 T02150091  RH  045%=      5-min Rain = 0
KES1 242049Z 19002KT 21/09 A2988 RMK A01 T02140094  RH  046%=      5-min Rain = 0
KES1 242050Z 21003KT 21/10 A2988 RMK A01 T02140098  RH  048%=      5-min Rain = 0
KES1 242051Z 21007KT 21/09 A2988 RMK A01 T02140094  RH  046%=      5-min Rain = 0
KES1 242052Z 21005KT 21/09 A2988 RMK A01 T02130086  RH  044%=      5-min Rain = 0
KES1 242053Z 21007KT 21/10 A2988 RMK A01 T02110095  RH  047%=      5-min Rain = 0
KES1 242054Z 22006KT 21/09 A2988 RMK A01 T02110093  RH  047%=      5-min Rain = 0
KES1 242055Z 21007KT 21/09 A2988 RMK A01 T02120094  RH  047%=      5-min Rain = 0
KES1 242056Z 21004KT 21/10 A2988 RMK A01 T02120095  RH  047%=      5-min Rain = 0
KES1 242057Z 22003KT 21/09 A2987 RMK A01 T02110091  RH  046%=      5-min Rain = 0
KES1 242058Z 22002KT 21/09 A2987 RMK A01 T02110085  RH  044%=      5-min Rain = 0
KES1 242059Z 23001KT 21/09 A2987 RMK A01 T02100089  RH  046%=      5-min Rain = 0
KES1 242100Z 19001KT 21/09 A2987 RMK A01 T02100093  RH  047%=      5-min Rain = 0
KES1 242101Z 14001KT 21/09 A2987 RMK A01 T02100093  RH  047%=      5-min Rain = 0
KES1 242102Z 16003KT 21/10 A2987 RMK A01 T02120101  RH  049%=      5-min Rain = 0
KES1 242103Z 13001KT 21/10 A2987 RMK A01 T02130098  RH  048%=      5-min Rain = 0
KES1 242104Z 10000KT 21/09 A2987 RMK A01 T02140085  RH  044%=      5-min Rain = 0
KES1 242105Z 26001KT 21/09 A2987 RMK A01 T02140091  RH  045%=      5-min Rain = 0
KES1 242106Z 29002KT 21/09 A2987 RMK A01 T02140090  RH  045%=      5-min Rain = 0
KES1 242107Z 29003KT 22/09 A2987 RMK A01 T02150092  RH  045%=      5-min Rain = 0
KES1 242108Z 25003KT 22/10 A2987 RMK A01 T02150101  RH  048%=      5-min Rain = 0
KES1 242109Z 24005KT 22/10 A2987 RMK A01 T02160102  RH  048%=      5-min Rain = 0
KES1 242110Z 22003KT 22/10 A2987 RMK A01 T02160098  RH  047%=      5-min Rain = 0
KES1 242111Z 17002KT 22/10 A2987 RMK A01 T02160097  RH  047%=      5-min Rain = 0
KES1 242112Z 15002KT 22/10 A2987 RMK A01 T02160103  RH  048%=      5-min Rain = 0
KES1 242113Z 12002KT 22/10 A2987 RMK A01 T02160097  RH  046%=      5-min Rain = 0
KES1 242114Z 20003KT 22/10 A2987 RMK A01 T02160099  RH  047%=      5-min Rain = 0
KES1 242115Z 20004KT 22/10 A2987 RMK A01 T02170101  RH  048%=      5-min Rain = 0
KES1 242116Z 20006KT 22/10 A2987 RMK A01 T02170095  RH  046%=      5-min Rain = 0
KES1 242117Z 18005KT 22/09 A2986 RMK A01 T02160090  RH  045%=      5-min Rain = 0
KES1 242118Z 20005KT 21/09 A2986 RMK A01 T02140093  RH  046%=      5-min Rain = 0
KES1 242119Z 19004KT 21/10 A2986 RMK A01 T02140098  RH  048%=      5-min Rain = 0
KES1 242120Z 16007KT 22/10 A2986 RMK A01 T02150103  RH  049%=      5-min Rain = 0
KES1 242121Z 15009KT 22/10 A2986 RMK A01 T02150101  RH  048%=      5-min Rain = 0
KES1 242122Z 15007KT 21/10 A2986 RMK A01 T02140098  RH  048%=      5-min Rain = 0
KES1 242123Z 13008KT 21/10 A2986 RMK A01 T02120101  RH  049%=      5-min Rain = 0
KES1 242124Z 14009KT 21/10 A2986 RMK A01 T02120102  RH  050%=      5-min Rain = 0
KES1 242125Z 14009KT 21/10 A2986 RMK A01 T02110100  RH  049%=      5-min Rain = 0
KES1 242126Z 14008KT 21/10 A2986 RMK A01 T02110096  RH  048%=      5-min Rain = 0
KES1 242127Z 12008KT 21/10 A2986 RMK A01 T02100097  RH  048%=      5-min Rain = 0
KES1 242128Z 13007KT 21/10 A2986 RMK A01 T02080095  RH  048%=      5-min Rain = 0
KES1 242129Z 12007KT 21/10 A2986 RMK A01 T02060099  RH  050%=      5-min Rain = 0
KES1 242130Z 11005KT 21/10 A2986 RMK A01 T02060097  RH  049%=      5-min Rain = 0
KES1 242131Z 10005KT 21/10 A2986 RMK A01 T02060101  RH  051%=      5-min Rain = 0
KES1 242132Z 10006KT 21/10 A2986 RMK A01 T02060098  RH  050%=      5-min Rain = 0
KES1 242133Z 13005KT 21/10 A2986 RMK A01 T02070104  RH  052%=      5-min Rain = 0
KES1 242134Z 12006KT 21/10 A2986 RMK A01 T02080099  RH  050%=      5-min Rain = 0
KES1 242135Z 12006KT 21/11 A2986 RMK A01 T02090106  RH  052%=      5-min Rain = 0
KES1 242136Z 12006KT 21/10 A2986 RMK A01 T02110100  RH  049%=      5-min Rain = 0
KES1 242137Z 11006KT 21/10 A2986 RMK A01 T02100099  RH  049%=      5-min Rain = 0
KES1 242138Z 10006KT 21/10 A2986 RMK A01 T02100098  RH  049%=      5-min Rain = 0
KES1 242139Z 12006KT 21/10 A2986 RMK A01 T02090096  RH  048%=      5-min Rain = 0
KES1 242140Z 13005KT 21/10 A2986 RMK A01 T02080098  RH  049%=      5-min Rain = 0
KES1 242141Z 16008KT 21/10 A2986 RMK A01 T02090102  RH  050%=      5-min Rain = 0
KES1 242142Z 16008KT 21/10 A2986 RMK A01 T02100098  RH  049%=      5-min Rain = 0
KES1 242143Z 17007KT 21/10 A2986 RMK A01 T02120100  RH  049%=      5-min Rain = 0
KES1 242144Z 17005KT 21/09 A2986 RMK A01 T02120093  RH  046%=      5-min Rain = 0
KES1 242145Z 21004KT 21/10 A2986 RMK A01 T02120099  RH  048%=      5-min Rain = 0
KES1 242146Z 21003KT 21/09 A2986 RMK A01 T02120091  RH  046%=      5-min Rain = 0
KES1 242147Z 19002KT 21/10 A2986 RMK A01 T02120098  RH  048%=      5-min Rain = 0
KES1 242148Z 18004KT 21/10 A2986 RMK A01 T02120098  RH  048%=      5-min Rain = 0
KES1 242149Z 21005KT 21/10 A2986 RMK A01 T02130099  RH  048%=      5-min Rain = 0
KES1 242150Z 21006KT 21/10 A2986 RMK A01 T02130096  RH  047%=      5-min Rain = 0
KES1 242151Z 20005KT 21/09 A2986 RMK A01 T02120094  RH  047%=      5-min Rain = 0
KES1 242152Z 19005KT 21/09 A2986 RMK A01 T02100091  RH  046%=      5-min Rain = 0
KES1 242153Z 14003KT 21/10 A2986 RMK A01 T02100099  RH  049%=      5-min Rain = 0
KES1 242154Z 15005KT 21/10 A2986 RMK A01 T02100102  RH  050%=      5-min Rain = 0
KES1 242155Z 16007KT 21/10 A2986 RMK A01 T02100102  RH  050%=      5-min Rain = 0
KES1 242156Z 15008KT 21/10 A2986 RMK A01 T02100101  RH  050%=      5-min Rain = 0
KES1 242157Z 15008KT 21/10 A2986 RMK A01 T02090101  RH  050%=      5-min Rain = 0
KES1 242158Z 15008KT 21/10 A2986 RMK A01 T02070101  RH  050%=      5-min Rain = 0
KES1 242159Z 15007KT 21/10 A2986 RMK A01 T02060101  RH  051%=      5-min Rain = 0
KES1 242200Z 17006KT 21/11 A2986 RMK A01 T02060107  RH  053%=      5-min Rain = 0
KES1 242201Z 17007KT 21/11 A2986 RMK A01 T02060105  RH  052%=      5-min Rain = 0
KES1 242202Z 16006KT 21/11 A2986 RMK A01 T02060105  RH  052%=      5-min Rain = 0
KES1 242203Z 16007KT 21/10 A2986 RMK A01 T02060102  RH  051%=      5-min Rain = 0
KES1 242204Z 15006KT 21/10 A2986 RMK A01 T02070101  RH  051%=      5-min Rain = 0
KES1 242205Z 17006KT 21/11 A2986 RMK A01 T02060106  RH  053%=      5-min Rain = 0
KES1 242206Z 17009KT 21/10 A2986 RMK A01 T02060103  RH  051%=      5-min Rain = 0
KES1 242207Z 16009KT 21/10 A2986 RMK A01 T02060103  RH  051%=      5-min Rain = 0
KES1 242208Z 16007KT 21/10 A2986 RMK A01 T02060102  RH  051%=      5-min Rain = 0
KES1 242209Z 18007KT 21/11 A2986 RMK A01 T02050105  RH  053%=      5-min Rain = 0
KES1 242210Z 17009KT 20/10 A2986 RMK A01 T02040103  RH  052%=      5-min Rain = 0
KES1 242211Z 18007KT 21/11 A2986 RMK A01 T02050105  RH  053%=      5-min Rain = 0
KES1 242212Z 17008KT 20/10 A2986 RMK A01 T02040102  RH  052%=      5-min Rain = 0
KES1 242213Z 18008KT 20/10 A2986 RMK A01 T02040104  RH  053%=      5-min Rain = 0
KES1 242214Z 17008KT 20/10 A2986 RMK A01 T02040102  RH  052%=      5-min Rain = 0
KES1 242215Z 17008KT 20/10 A2986 RMK A01 T02040100  RH  051%=      5-min Rain = 0
KES1 242216Z 16009KT 20/10 A2986 RMK A01 T02040104  RH  053%=      5-min Rain = 0
KES1 242217Z 17010KT 20/10 A2986 RMK A01 T02040102  RH  052%=      5-min Rain = 0
KES1 242218Z 16010KT 20/10 A2986 RMK A01 T02040100  RH  051%=      5-min Rain = 0
KES1 242219Z 15009KT 20/10 A2986 RMK A01 T02030100  RH  052%=      5-min Rain = 0
KES1 242220Z 16008KT 20/10 A2986 RMK A01 T02030103  RH  052%=      5-min Rain = 0
KES1 242221Z 18008KT 20/10 A2986 RMK A01 T02030102  RH  052%=      5-min Rain = 0
KES1 242222Z 17009KT 20/10 A2986 RMK A01 T02030101  RH  052%=      5-min Rain = 0
KES1 242223Z 16008KT 20/10 A2986 RMK A01 T02030102  RH  052%=      5-min Rain = 0
KES1 242224Z 15009KT 20/10 A2986 RMK A01 T02030099  RH  051%=      5-min Rain = 0
KES1 242225Z 15009KT 20/10 A2986 RMK A01 T02030098  RH  051%=      5-min Rain = 0
KES1 242226Z 16010KT 20/10 A2986 RMK A01 T02030101  RH  052%=      5-min Rain = 0
KES1 242227Z 16012KT 20/10 A2986 RMK A01 T02040100  RH  051%=      5-min Rain = 0
KES1 242228Z 16010KT 20/10 A2986 RMK A01 T02030100  RH  051%=      5-min Rain = 0
KES1 242229Z 16009KT 20/10 A2986 RMK A01 T02030099  RH  051%=      5-min Rain = 0
KES1 242230Z 16009KT 20/10 A2986 RMK A01 T02020100  RH  052%=      5-min Rain = 0
KES1 242231Z 15010KT 20/10 A2986 RMK A01 T02020100  RH  052%=      5-min Rain = 0
KES1 242232Z 14010KT 20/10 A2986 RMK A01 T02020099  RH  051%=      5-min Rain = 0
KES1 242233Z 16010KT 20/10 A2986 RMK A01 T02020099  RH  051%=      5-min Rain = 0
KES1 242234Z 17008KT 20/10 A2986 RMK A01 T02020098  RH  051%=      5-min Rain = 0
KES1 242235Z 17009KT 20/10 A2986 RMK A01 T02020097  RH  051%=      5-min Rain = 0
KES1 242236Z 16009KT 20/10 A2986 RMK A01 T02020099  RH  051%=      5-min Rain = 0
KES1 242237Z 17009KT 20/10 A2986 RMK A01 T02030097  RH  051%=      5-min Rain = 0
KES1 242238Z 16009KT 20/10 A2986 RMK A01 T02030095  RH  050%=      5-min Rain = 0
KES1 242239Z 15009KT 20/10 A2986 RMK A01 T02030099  RH  051%=      5-min Rain = 0
KES1 242240Z 15009KT 20/10 A2986 RMK A01 T02040099  RH  051%=      5-min Rain = 0
KES1 242241Z 16009KT 20/10 A2986 RMK A01 T02040099  RH  051%=      5-min Rain = 0
KES1 242242Z 16010KT 20/10 A2986 RMK A01 T02040099  RH  051%=      5-min Rain = 0
KES1 242243Z 17010KT 20/10 A2986 RMK A01 T02040100  RH  051%=      5-min Rain = 0
KES1 242244Z 17008KT 20/10 A2986 RMK A01 T02040101  RH  052%=      5-min Rain = 0
KES1 242245Z 17008KT 20/10 A2985 RMK A01 T02040101  RH  052%=      5-min Rain = 0
KES1 242246Z 18008G13KT 20/10 A2985 RMK A01 T02040104  RH  053%=      5-min Rain = 0
KES1 242247Z 17007KT 21/10 A2985 RMK A01 T02050102  RH  052%=      5-min Rain = 0
KES1 242248Z 17007KT 21/10 A2985 RMK A01 T02050101  RH  051%=      5-min Rain = 0
KES1 242249Z 15009KT 21/10 A2985 RMK A01 T02060103  RH  052%=      5-min Rain = 0
KES1 242250Z 16009KT 21/10 A2985 RMK A01 T02060100  RH  050%=      5-min Rain = 0
KES1 242251Z 15010KT 21/10 A2985 RMK A01 T02060097  RH  050%=      5-min Rain = 0
KES1 242252Z 13009KT 21/10 A2985 RMK A01 T02060101  RH  051%=      5-min Rain = 0
KES1 242253Z 15010KT 21/10 A2985 RMK A01 T02060101  RH  051%=      5-min Rain = 0
KES1 242254Z 16013KT 21/10 A2985 RMK A01 T02070099  RH  050%=      5-min Rain = 0
KES1 242255Z 16010KT 21/10 A2985 RMK A01 T02070097  RH  049%=      5-min Rain = 0
KES1 242256Z 16009KT 21/10 A2985 RMK A01 T02070102  RH  051%=      5-min Rain = 0
KES1 242257Z 17010KT 21/10 A2985 RMK A01 T02070099  RH  050%=      5-min Rain = 0
KES1 242258Z 15009KT 21/10 A2985 RMK A01 T02070103  RH  051%=      5-min Rain = 0
KES1 242259Z 17010KT 21/10 A2985 RMK A01 T02080100  RH  050%=      5-min Rain = 0
KES1 242300Z 16008G13KT 21/10 A2985 RMK A01 T02080102  RH  051%=      5-min Rain = 0
KES1 242301Z 15010KT 21/10 A2985 RMK A01 T02080098  RH  049%=      5-min Rain = 0
KES1 242302Z 15009KT 21/10 A2985 RMK A01 T02070099  RH  050%=      5-min Rain = 0
KES1 242303Z 16010KT 21/10 A2985 RMK A01 T02070101  RH  051%=      5-min Rain = 0
KES1 242304Z 17009KT 21/10 A2985 RMK A01 T02060102  RH  051%=      5-min Rain = 0
KES1 242305Z 16008KT 20/10 A2985 RMK A01 T02040099  RH  051%=      5-min Rain = 0
KES1 242306Z 17008KT 20/10 A2985 RMK A01 T02030103  RH  053%=      5-min Rain = 0
KES1 242307Z 16008KT 20/10 A2985 RMK A01 T02030102  RH  052%=      5-min Rain = 0
KES1 242308Z 17010KT 20/11 A2985 RMK A01 T02020105  RH  053%=      5-min Rain = 0
KES1 242309Z 16009KT 20/10 A2985 RMK A01 T02010103  RH  053%=      5-min Rain = 0
KES1 242310Z 16007KT 20/10 A2985 RMK A01 T02010102  RH  053%=      5-min Rain = 0
KES1 242311Z 16007KT 20/11 A2984 RMK A01 T02020106  RH  054%=      5-min Rain = 0
KES1 242312Z 17008KT 20/11 A2984 RMK A01 T02030105  RH  053%=      5-min Rain = 0
KES1 242313Z 18009KT 20/10 A2984 RMK A01 T02040104  RH  052%=      5-min Rain = 0
KES1 242314Z 19008KT 21/11 A2984 RMK A01 T02050106  RH  053%=      5-min Rain = 0
KES1 242315Z 16009KT 21/11 A2984 RMK A01 T02050105  RH  053%=      5-min Rain = 0
KES1 242316Z 17008KT 21/11 A2984 RMK A01 T02050106  RH  053%=      5-min Rain = 0
KES1 242317Z 17008KT 21/11 A2984 RMK A01 T02050108  RH  054%=      5-min Rain = 0
KES1 242318Z 17008KT 20/11 A2984 RMK A01 T02040106  RH  054%=      5-min Rain = 0
KES1 242319Z 17010KT 20/10 A2984 RMK A01 T02020103  RH  053%=      5-min Rain = 0
KES1 242320Z 16007KT 20/10 A2984 RMK A01 T02000100  RH  052%=      5-min Rain = 0
KES1 242321Z 17006KT 20/10 A2984 RMK A01 T01990103  RH  054%=      5-min Rain = 0
KES1 242322Z 18007KT 20/11 A2984 RMK A01 T01990105  RH  055%=      5-min Rain = 0
KES1 242323Z 18006KT 20/11 A2984 RMK A01 T01990105  RH  055%=      5-min Rain = 0
KES1 242324Z 19008KT 20/11 A2984 RMK A01 T01980106  RH  055%=      5-min Rain = 0
KES1 242325Z 19009KT 20/10 A2984 RMK A01 T01980102  RH  054%=      5-min Rain = 0
KES1 242326Z 19011KT 20/10 A2984 RMK A01 T01980099  RH  053%=      5-min Rain = 0
KES1 242327Z 19008KT 20/10 A2984 RMK A01 T01980100  RH  053%=      5-min Rain = 0
KES1 242328Z 18006KT 20/10 A2984 RMK A01 T01980103  RH  054%=      5-min Rain = 0
KES1 242329Z 17008KT 20/10 A2984 RMK A01 T02000103  RH  054%=      5-min Rain = 0
KES1 242330Z 17008KT 20/10 A2983 RMK A01 T02000102  RH  053%=      5-min Rain = 0
KES1 242331Z 15008KT 20/10 A2983 RMK A01 T01990102  RH  053%=      5-min Rain = 0
KES1 242332Z 15010KT 20/10 A2983 RMK A01 T01990103  RH  054%=      5-min Rain = 0
KES1 242333Z 17007KT 20/10 A2983 RMK A01 T01990104  RH  054%=      5-min Rain = 0
KES1 242334Z 16008KT 20/11 A2983 RMK A01 T01980105  RH  055%=      5-min Rain = 0
KES1 242335Z 16009KT 20/10 A2983 RMK A01 T01980102  RH  054%=      5-min Rain = 0
KES1 242336Z 18006KT 20/10 A2983 RMK A01 T01970104  RH  055%=      5-min Rain = 0
KES1 242337Z 18007KT 20/11 A2983 RMK A01 T01970110  RH  057%=      5-min Rain = 0
KES1 242338Z 18010KT 20/10 A2983 RMK A01 T01970103  RH  055%=      5-min Rain = 0
KES1 242339Z 17008KT 20/11 A2983 RMK A01 T01980107  RH  056%=      5-min Rain = 0
KES1 242340Z 18007KT 20/11 A2983 RMK A01 T01970105  RH  055%=      5-min Rain = 0
KES1 242341Z 17007KT 20/11 A2983 RMK A01 T01970106  RH  055%=      5-min Rain = 0
KES1 242342Z 17009KT 20/10 A2983 RMK A01 T01970104  RH  055%=      5-min Rain = 0
KES1 242343Z 17008KT 20/10 A2983 RMK A01 T01960102  RH  054%=      5-min Rain = 0
KES1 242344Z 18008KT 20/10 A2983 RMK A01 T01950100  RH  054%=      5-min Rain = 0
KES1 242345Z 17007KT 20/10 A2983 RMK A01 T01950103  RH  055%=      5-min Rain = 0
KES1 242346Z 17007KT 20/10 A2983 RMK A01 T01950104  RH  055%=      5-min Rain = 0
KES1 242347Z 18006KT 20/10 A2983 RMK A01 T01950103  RH  055%=      5-min Rain = 0
KES1 242348Z 17006KT 20/11 A2983 RMK A01 T01950105  RH  056%=      5-min Rain = 0
KES1 242349Z 18006KT 20/11 A2983 RMK A01 T01950105  RH  056%=      5-min Rain = 0
KES1 242350Z 18008KT 20/11 A2983 RMK A01 T01960106  RH  056%=      5-min Rain = 0
KES1 242351Z 18008KT 20/10 A2983 RMK A01 T01960101  RH  054%=      5-min Rain = 0
KES1 242352Z 18007KT 20/11 A2983 RMK A01 T01960106  RH  056%=      5-min Rain = 0
KES1 242353Z 18008KT 20/10 A2983 RMK A01 T01960103  RH  055%=      5-min Rain = 0
KES1 242354Z 18008KT 20/10 A2983 RMK A01 T01960103  RH  055%=      5-min Rain = 0
KES1 242355Z 19008KT 20/10 A2983 RMK A01 T01950104  RH  056%=      5-min Rain = 0
KES1 242356Z 19008KT 20/10 A2983 RMK A01 T01950103  RH  055%=      5-min Rain = 0
KES1 242357Z 18006KT 20/10 A2983 RMK A01 T01960104  RH  055%=      5-min Rain = 0
KES1 242358Z 18006KT 20/11 A2983 RMK A01 T01970107  RH  056%=      5-min Rain = 0
KES1 242359Z 17005KT 20/11 A2983 RMK A01 T01980107  RH  056%=      5-min Rain = 0
KES1 250000Z 16006KT 20/11 A2983 RMK A01 T01980105  RH  055%=      5-min Rain = 0
KES1 250001Z 16008KT 20/10 A2983 RMK A01 T01990102  RH  054%=      5-min Rain = 0
KES1 250002Z 17005KT 20/11 A2983 RMK A01 T01980105  RH  055%=      5-min Rain = 0
KES1 250003Z 16006KT 20/11 A2983 RMK A01 T01980108  RH  056%=      5-min Rain = 0
KES1 250004Z 16007KT 20/10 A2983 RMK A01 T01980104  RH  054%=      5-min Rain = 0
KES1 250005Z 17007KT 20/11 A2983 RMK A01 T01970105  RH  055%=      5-min Rain = 0
KES1 250006Z 17008KT 20/11 A2983 RMK A01 T01960106  RH  056%=      5-min Rain = 0
KES1 250007Z 18009KT 20/11 A2983 RMK A01 T01950105  RH  056%=      5-min Rain = 0
KES1 250008Z 18008KT 19/10 A2983 RMK A01 T01930104  RH  056%=      5-min Rain = 0
KES1 250009Z 17007KT 19/11 A2983 RMK A01 T01920106  RH  057%=      5-min Rain = 0
KES1 250010Z 17009KT 19/11 A2983 RMK A01 T01920106  RH  057%=      5-min Rain = 0
KES1 250011Z 16008KT 19/10 A2983 RMK A01 T01910104  RH  057%=      5-min Rain = 0
KES1 250012Z 16009KT 19/11 A2983 RMK A01 T01910105  RH  057%=      5-min Rain = 0
KES1 250013Z 16009KT 19/11 A2983 RMK A01 T01910106  RH  057%=      5-min Rain = 0
KES1 250014Z 16007KT 19/11 A2983 RMK A01 T01910106  RH  058%=      5-min Rain = 0
KES1 250015Z 16008KT 19/11 A2983 RMK A01 T01910108  RH  059%=      5-min Rain = 0
KES1 250016Z 15008KT 19/11 A2983 RMK A01 T01910108  RH  058%=      5-min Rain = 0
KES1 250017Z 16008KT 19/11 A2983 RMK A01 T01910107  RH  058%=      5-min Rain = 0
KES1 250018Z 15007KT 19/11 A2983 RMK A01 T01900107  RH  058%=      5-min Rain = 0
KES1 250019Z 15007KT 19/11 A2983 RMK A01 T01900106  RH  058%=      5-min Rain = 0
KES1 250020Z 16008KT 19/11 A2983 RMK A01 T01900106  RH  058%=      5-min Rain = 0
KES1 250021Z 15008KT 19/11 A2983 RMK A01 T01900106  RH  058%=      5-min Rain = 0
KES1 250022Z 16007KT 19/11 A2983 RMK A01 T01900107  RH  058%=      5-min Rain = 0
KES1 250023Z 15008KT 19/11 A2983 RMK A01 T01900106  RH  058%=      5-min Rain = 0
KES1 250024Z 15007KT 19/11 A2983 RMK A01 T01900105  RH  057%=      5-min Rain = 0
KES1 250025Z 16009KT 19/10 A2983 RMK A01 T01910103  RH  057%=      5-min Rain = 0
KES1 250026Z 15007KT 19/11 A2983 RMK A01 T01910105  RH  057%=      5-min Rain = 0
KES1 250027Z 15007KT 19/11 A2983 RMK A01 T01910105  RH  057%=      5-min Rain = 0
KES1 250028Z 15008KT 19/10 A2983 RMK A01 T01910104  RH  057%=      5-min Rain = 0
KES1 250029Z 16008KT 19/11 A2983 RMK A01 T01910105  RH  057%=      5-min Rain = 0
KES1 250030Z 16006KT 19/11 A2983 RMK A01 T01910105  RH  057%=      5-min Rain = 0
KES1 250031Z 16006KT 19/11 A2983 RMK A01 T01900106  RH  058%=      5-min Rain = 0
KES1 250032Z 16008KT 19/11 A2983 RMK A01 T01900107  RH  058%=      5-min Rain = 0
KES1 250033Z 16008KT 19/11 A2983 RMK A01 T01900105  RH  058%=      5-min Rain = 0
KES1 250034Z 17009KT 19/10 A2983 RMK A01 T01900104  RH  057%=      5-min Rain = 0
KES1 250035Z 16008KT 19/10 A2983 RMK A01 T01900103  RH  057%=      5-min Rain = 0
KES1 250036Z 16009KT 19/10 A2983 RMK A01 T01890102  RH  057%=      5-min Rain = 0
KES1 250037Z 15009KT 19/10 A2983 RMK A01 T01890103  RH  057%=      5-min Rain = 0
KES1 250038Z 16008KT 19/10 A2983 RMK A01 T01890103  RH  057%=      5-min Rain = 0
KES1 250039Z 17007KT 19/10 A2983 RMK A01 T01890104  RH  058%=      5-min Rain = 0
KES1 250040Z 16007KT 19/10 A2983 RMK A01 T01890104  RH  058%=      5-min Rain = 0
KES1 250041Z 17008KT 19/10 A2983 RMK A01 T01890104  RH  058%=      5-min Rain = 0
KES1 250042Z 17007KT 19/11 A2983 RMK A01 T01890106  RH  059%=      5-min Rain = 0
KES1 250043Z 16007KT 19/11 A2983 RMK A01 T01890108  RH  059%=      5-min Rain = 0
KES1 250044Z 16008KT 19/11 A2983 RMK A01 T01880106  RH  059%=      5-min Rain = 0
KES1 250045Z 16007KT 19/11 A2983 RMK A01 T01870106  RH  059%=      5-min Rain = 0
KES1 250046Z 16007KT 19/11 A2983 RMK A01 T01880107  RH  060%=      5-min Rain = 0
KES1 250047Z 16008KT 19/11 A2983 RMK A01 T01870107  RH  060%=      5-min Rain = 0
KES1 250048Z 16006KT 19/11 A2983 RMK A01 T01870107  RH  060%=      5-min Rain = 0
KES1 250049Z 15005KT 19/11 A2983 RMK A01 T01870108  RH  060%=      5-min Rain = 0
KES1 250050Z 16006KT 19/11 A2983 RMK A01 T01870108  RH  060%=      5-min Rain = 0
KES1 250051Z 16006KT 19/11 A2983 RMK A01 T01860108  RH  060%=      5-min Rain = 0
KES1 250052Z 16008KT 19/11 A2983 RMK A01 T01860108  RH  061%=      5-min Rain = 0
KES1 250053Z 16008KT 19/11 A2983 RMK A01 T01860107  RH  060%=      5-min Rain = 0
KES1 250054Z 16007KT 19/11 A2983 RMK A01 T01860108  RH  060%=      5-min Rain = 0
KES1 250055Z 16006KT 19/11 A2983 RMK A01 T01860110  RH  061%=      5-min Rain = 0
KES1 250056Z 16007KT 19/11 A2983 RMK A01 T01850110  RH  062%=      5-min Rain = 0
KES1 250057Z 16006KT 19/11 A2983 RMK A01 T01850111  RH  062%=      5-min Rain = 0
KES1 250058Z 16007KT 18/11 A2983 RMK A01 T01840111  RH  062%=      5-min Rain = 0
KES1 250059Z 16007KT 18/11 A2983 RMK A01 T01840111  RH  062%=      5-min Rain = 0
KES1 250100Z 16006KT 18/11 A2983 RMK A01 T01830110  RH  062%=      5-min Rain = 0
KES1 250101Z 16008KT 18/11 A2983 RMK A01 T01830111  RH  063%=      5-min Rain = 0
KES1 250102Z 16008KT 18/11 A2983 RMK A01 T01820110  RH  063%=      5-min Rain = 0
KES1 250103Z 16008KT 18/11 A2983 RMK A01 T01820110  RH  063%=      5-min Rain = 0
KES1 250104Z 16008KT 18/11 A2983 RMK A01 T01820110  RH  063%=      5-min Rain = 0
KES1 250105Z 16007KT 18/11 A2983 RMK A01 T01820111  RH  063%=      5-min Rain = 0
KES1 250106Z 15007KT 18/11 A2983 RMK A01 T01810111  RH  064%=      5-min Rain = 0
KES1 250107Z 16008KT 18/11 A2983 RMK A01 T01800111  RH  064%=      5-min Rain = 0
KES1 250108Z 16008KT 18/11 A2983 RMK A01 T01800110  RH  064%=      5-min Rain = 0
KES1 250109Z 16007KT 18/11 A2983 RMK A01 T01790110  RH  064%=      5-min Rain = 0
KES1 250110Z 16007KT 18/11 A2983 RMK A01 T01790110  RH  064%=      5-min Rain = 0
KES1 250111Z 16008KT 18/11 A2983 RMK A01 T01780110  RH  064%=      5-min Rain = 0
KES1 250112Z 16007KT 18/11 A2983 RMK A01 T01770110  RH  065%=      5-min Rain = 0
KES1 250113Z 16008KT 18/11 A2983 RMK A01 T01770110  RH  065%=      5-min Rain = 0
KES1 250114Z 16007KT 18/11 A2983 RMK A01 T01770110  RH  065%=      5-min Rain = 0
KES1 250115Z 16007KT 18/11 A2983 RMK A01 T01760111  RH  066%=      5-min Rain = 0
KES1 250116Z 16008KT 18/11 A2983 RMK A01 T01760111  RH  066%=      5-min Rain = 0
KES1 250117Z 16007KT 18/11 A2983 RMK A01 T01750111  RH  066%=      5-min Rain = 0
KES1 250118Z 16008KT 17/11 A2983 RMK A01 T01740111  RH  066%=      5-min Rain = 0
KES1 250119Z 16008KT 17/11 A2983 RMK A01 T01740111  RH  066%=      5-min Rain = 0
KES1 250120Z 16007KT 17/11 A2983 RMK A01 T01740111  RH  067%=      5-min Rain = 0
KES1 250121Z 16007KT 17/11 A2983 RMK A01 T01730111  RH  067%=      5-min Rain = 0
KES1 250122Z 16008KT 17/11 A2983 RMK A01 T01730111  RH  067%=      5-min Rain = 0
KES1 250123Z 16008KT 17/11 A2983 RMK A01 T01720112  RH  067%=      5-min Rain = 0
KES1 250124Z 16008KT 17/11 A2983 RMK A01 T01720111  RH  067%=      5-min Rain = 0
KES1 250125Z 16008KT 17/11 A2983 RMK A01 T01720111  RH  067%=      5-min Rain = 0
KES1 250126Z 17008KT 17/11 A2983 RMK A01 T01710110  RH  067%=      5-min Rain = 0
KES1 250127Z 16008KT 17/11 A2983 RMK A01 T01710111  RH  068%=      5-min Rain = 0
KES1 250128Z 16009KT 17/11 A2983 RMK A01 T01710111  RH  068%=      5-min Rain = 0
KES1 250129Z 16008KT 17/11 A2983 RMK A01 T01710111  RH  068%=      5-min Rain = 0
KES1 250130Z 16008KT 17/11 A2983 RMK A01 T01710111  RH  068%=      5-min Rain = 0
KES1 250131Z 16008KT 17/11 A2983 RMK A01 T01700112  RH  069%=      5-min Rain = 0
KES1 250132Z 17008KT 17/11 A2983 RMK A01 T01690112  RH  069%=      5-min Rain = 0
KES1 250133Z 17007KT 17/11 A2983 RMK A01 T01690112  RH  069%=      5-min Rain = 0
KES1 250134Z 17007KT 17/11 A2983 RMK A01 T01680112  RH  070%=      5-min Rain = 0
KES1 250135Z 17008KT 17/11 A2983 RMK A01 T01670112  RH  070%=      5-min Rain = 0
KES1 250136Z 16008KT 17/11 A2983 RMK A01 T01670112  RH  070%=      5-min Rain = 0
KES1 250137Z 17008KT 17/11 A2983 RMK A01 T01670112  RH  070%=      5-min Rain = 0
KES1 250138Z 16008KT 17/11 A2983 RMK A01 T01670112  RH  070%=      5-min Rain = 0
KES1 250139Z 16009KT 17/11 A2983 RMK A01 T01670112  RH  070%=      5-min Rain = 0
KES1 250140Z 17008KT 17/11 A2983 RMK A01 T01660112  RH  070%=      5-min Rain = 0
KES1 250141Z 17008KT 17/11 A2983 RMK A01 T01660113  RH  071%=      5-min Rain = 0
KES1 250142Z 16008KT 17/11 A2983 RMK A01 T01650113  RH  071%=      5-min Rain = 0
KES1 250143Z 16008KT 17/11 A2983 RMK A01 T01650113  RH  071%=      5-min Rain = 0
KES1 250144Z 16007KT 16/11 A2983 RMK A01 T01640113  RH  072%=      5-min Rain = 0
KES1 250145Z 16006KT 16/11 A2983 RMK A01 T01630113  RH  072%=      5-min Rain = 0
KES1 250146Z 16007KT 16/11 A2983 RMK A01 T01630113  RH  072%=      5-min Rain = 0
KES1 250147Z 16007KT 16/11 A2983 RMK A01 T01620113  RH  073%=      5-min Rain = 0
KES1 250148Z 16007KT 16/11 A2983 RMK A01 T01610113  RH  073%=      5-min Rain = 0
KES1 250149Z 17007KT 16/11 A2983 RMK A01 T01610113  RH  073%=      5-min Rain = 0
KES1 250150Z 17008KT 16/11 A2983 RMK A01 T01610113  RH  074%=      5-min Rain = 0
KES1 250151Z 17007KT 16/11 A2983 RMK A01 T01600114  RH  074%=      5-min Rain = 0
KES1 250152Z 16007KT 16/11 A2983 RMK A01 T01600114  RH  074%=      5-min Rain = 0
KES1 250153Z 16007KT 16/12 A2983 RMK A01 T01600115  RH  074%=      5-min Rain = 0
KES1 250154Z 16007KT 16/12 A2984 RMK A01 T01600115  RH  075%=      5-min Rain = 0
KES1 250155Z 16007KT 16/12 A2984 RMK A01 T01600116  RH  075%=      5-min Rain = 0
KES1 250156Z 16007KT 16/12 A2984 RMK A01 T01590116  RH  075%=      5-min Rain = 0
KES1 250157Z 16006KT 16/12 A2984 RMK A01 T01590116  RH  076%=      5-min Rain = 0
KES1 250158Z 16007KT 16/12 A2984 RMK A01 T01580116  RH  076%=      5-min Rain = 0
KES1 250159Z 16006KT 16/12 A2984 RMK A01 T01580116  RH  076%=      5-min Rain = 0
KES1 250200Z 16006KT 16/12 A2984 RMK A01 T01570116  RH  076%=      5-min Rain = 0
KES1 250201Z 17006KT 16/12 A2984 RMK A01 T01560116  RH  077%=      5-min Rain = 0
KES1 250202Z 17006KT 16/12 A2984 RMK A01 T01560116  RH  077%=      5-min Rain = 0
KES1 250203Z 16006KT 16/12 A2984 RMK A01 T01550116  RH  078%=      5-min Rain = 0
KES1 250204Z 16006KT 15/12 A2984 RMK A01 T01540116  RH  078%=      5-min Rain = 0
KES1 250205Z 17006KT 15/12 A2984 RMK A01 T01540116  RH  078%=      5-min Rain = 0
KES1 250206Z 17006KT 15/12 A2984 RMK A01 T01540116  RH  078%=      5-min Rain = 0
KES1 250207Z 17006KT 15/12 A2984 RMK A01 T01540116  RH  078%=      5-min Rain = 0
KES1 250208Z 17007KT 15/12 A2984 RMK A01 T01540116  RH  078%=      5-min Rain = 0
KES1 250209Z 17007KT 15/12 A2984 RMK A01 T01540115  RH  078%=      5-min Rain = 0
KES1 250210Z 16007KT 15/12 A2984 RMK A01 T01540115  RH  078%=      5-min Rain = 0
KES1 250211Z 17008KT 15/12 A2984 RMK A01 T01540115  RH  078%=      5-min Rain = 0
KES1 250212Z 17008KT 15/12 A2984 RMK A01 T01540115  RH  077%=      5-min Rain = 0
KES1 250213Z 17007KT 16/11 A2984 RMK A01 T01550114  RH  077%=      5-min Rain = 0
KES1 250214Z 17007KT 16/11 A2984 RMK A01 T01550114  RH  076%=      5-min Rain = 0
KES1 250215Z 17007KT 16/11 A2984 RMK A01 T01550114  RH  076%=      5-min Rain = 0
KES1 250216Z 17008KT 16/11 A2984 RMK A01 T01560114  RH  076%=      5-min Rain = 0
KES1 250217Z 17008KT 16/11 A2984 RMK A01 T01560114  RH  076%=      5-min Rain = 0
KES1 250218Z 17008KT 16/11 A2984 RMK A01 T01550114  RH  076%=      5-min Rain = 0
KES1 250219Z 16009KT 16/11 A2984 RMK A01 T01550113  RH  076%=      5-min Rain = 0
KES1 250220Z 16008KT 16/11 A2984 RMK A01 T01560113  RH  076%=      5-min Rain = 0
KES1 250221Z 16007KT 16/11 A2984 RMK A01 T01550113  RH  076%=      5-min Rain = 0
KES1 250222Z 16007KT 16/11 A2984 RMK A01 T01550113  RH  076%=      5-min Rain = 0
KES1 250223Z 16008KT 15/11 A2984 RMK A01 T01540113  RH  077%=      5-min Rain = 0
KES1 250224Z 16008KT 15/11 A2984 RMK A01 T01530113  RH  077%=      5-min Rain = 0
KES1 250225Z 16008KT 15/11 A2984 RMK A01 T01520113  RH  078%=      5-min Rain = 0
KES1 250226Z 15008KT 15/11 A2984 RMK A01 T01520114  RH  078%=      5-min Rain = 0
KES1 250227Z 15008KT 15/11 A2984 RMK A01 T01510114  RH  079%=      5-min Rain = 0
KES1 250228Z 15008KT 15/12 A2984 RMK A01 T01510115  RH  079%=      5-min Rain = 0
KES1 250229Z 15008KT 15/12 A2984 RMK A01 T01500115  RH  080%=      5-min Rain = 0
KES1 250230Z 15008KT 15/12 A2984 RMK A01 T01490115  RH  080%=      5-min Rain = 0
KES1 250231Z 15008KT 15/12 A2984 RMK A01 T01490116  RH  081%=      5-min Rain = 0
KES1 250232Z 15008KT 15/12 A2984 RMK A01 T01480116  RH  081%=      5-min Rain = 0
KES1 250233Z 15007KT 15/12 A2985 RMK A01 T01480116  RH  082%=      5-min Rain = 0
KES1 250234Z 15008KT 15/12 A2985 RMK A01 T01470117  RH  082%=      5-min Rain = 0
KES1 250235Z 16008KT 15/12 A2985 RMK A01 T01470117  RH  082%=      5-min Rain = 0
KES1 250236Z 15008KT 15/12 A2985 RMK A01 T01470117  RH  082%=      5-min Rain = 0
KES1 250237Z 16008KT 15/12 A2985 RMK A01 T01480117  RH  082%=      5-min Rain = 0
KES1 250238Z 16008KT 15/12 A2985 RMK A01 T01480118  RH  082%=      5-min Rain = 0
KES1 250239Z 16008KT 15/12 A2985 RMK A01 T01490118  RH  082%=      5-min Rain = 0
KES1 250240Z 16008KT 15/12 A2985 RMK A01 T01500118  RH  081%=      5-min Rain = 0
KES1 250241Z 16008KT 15/12 A2985 RMK A01 T01500117  RH  081%=      5-min Rain = 0
KES1 250242Z 16007KT 15/12 A2985 RMK A01 T01500117  RH  081%=      5-min Rain = 0
KES1 250243Z 16007KT 15/12 A2985 RMK A01 T01500117  RH  080%=      5-min Rain = 0
KES1 250244Z 16008KT 15/12 A2985 RMK A01 T01500117  RH  080%=      5-min Rain = 0
KES1 250245Z 16008KT 15/12 A2985 RMK A01 T01500117  RH  080%=      5-min Rain = 0
KES1 250246Z 16008KT 15/12 A2985 RMK A01 T01500116  RH  080%=      5-min Rain = 0
KES1 250247Z 16008KT 15/12 A2985 RMK A01 T01500116  RH  080%=      5-min Rain = 0
KES1 250248Z 16008KT 15/12 A2985 RMK A01 T01500116  RH  080%=      5-min Rain = 0
KES1 250249Z 16007KT 15/12 A2985 RMK A01 T01490116  RH  080%=      5-min Rain = 0
KES1 250250Z 16008KT 15/12 A2985 RMK A01 T01490116  RH  080%=      5-min Rain = 0
KES1 250251Z 16008KT 15/12 A2985 RMK A01 T01490115  RH  080%=      5-min Rain = 0
KES1 250252Z 16009KT 15/12 A2985 RMK A01 T01490115  RH  080%=      5-min Rain = 0
KES1 250253Z 16009KT 15/11 A2985 RMK A01 T01490114  RH  079%=      5-min Rain = 0
KES1 250254Z 16009KT 15/11 A2985 RMK A01 T01500114  RH  079%=      5-min Rain = 0
KES1 250255Z 17009KT 15/12 A2985 RMK A01 T01510115  RH  079%=      5-min Rain = 0
KES1 250256Z 16009KT 15/12 A2985 RMK A01 T01510115  RH  079%=      5-min Rain = 0
KES1 250257Z 17009KT 15/12 A2984 RMK A01 T01510115  RH  079%=      5-min Rain = 0
KES1 250258Z 16008KT 15/12 A2984 RMK A01 T01510116  RH  079%=      5-min Rain = 0
KES1 250259Z 16008KT 15/12 A2984 RMK A01 T01510115  RH  079%=      5-min Rain = 0
KES1 250300Z 16008KT 15/12 A2984 RMK A01 T01510115  RH  079%=      5-min Rain = 0
KES1 250301Z 16008KT 15/12 A2984 RMK A01 T01500115  RH  079%=      5-min Rain = 0
KES1 250302Z 16008KT 15/12 A2984 RMK A01 T01500115  RH  079%=      5-min Rain = 0
KES1 250303Z 16008KT 15/12 A2984 RMK A01 T01500115  RH  079%=      5-min Rain = 0
KES1 250304Z 16008KT 15/12 A2984 RMK A01 T01500115  RH  080%=      5-min Rain = 0
KES1 250305Z 17008KT 15/12 A2984 RMK A01 T01490115  RH  080%=      5-min Rain = 0
KES1 250306Z 17008KT 15/11 A2984 RMK A01 T01490114  RH  080%=      5-min Rain = 0
KES1 250307Z 17008KT 15/11 A2985 RMK A01 T01480114  RH  080%=      5-min Rain = 0
KES1 250308Z 17007KT 15/11 A2985 RMK A01 T01490114  RH  080%=      5-min Rain = 0
KES1 250309Z 17008KT 15/11 A2984 RMK A01 T01490114  RH  080%=      5-min Rain = 0
KES1 250310Z 17008KT 15/11 A2984 RMK A01 T01480114  RH  080%=      5-min Rain = 0
KES1 250311Z 17008KT 15/11 A2984 RMK A01 T01480114  RH  080%=      5-min Rain = 0
KES1 250312Z 17008KT 15/11 A2984 RMK A01 T01480114  RH  080%=      5-min Rain = 0
KES1 250313Z 17007KT 15/11 A2984 RMK A01 T01480114  RH  080%=      5-min Rain = 0
KES1 250314Z 17007KT 15/11 A2984 RMK A01 T01480114  RH  080%=      5-min Rain = 0
KES1 250315Z 18008KT 15/12 A2984 RMK A01 T01480115  RH  081%=      5-min Rain = 0
KES1 250316Z 17008KT 15/12 A2984 RMK A01 T01480115  RH  081%=      5-min Rain = 0
KES1 250317Z 18008KT 15/12 A2984 RMK A01 T01470115  RH  081%=      5-min Rain = 0
KES1 250318Z 18008KT 15/12 A2984 RMK A01 T01470115  RH  081%=      5-min Rain = 0
KES1 250319Z 18007KT 15/11 A2984 RMK A01 T01470114  RH  081%=      5-min Rain = 0
KES1 250320Z 18007KT 15/11 A2984 RMK A01 T01470114  RH  081%=      5-min Rain = 0
KES1 250321Z 17008KT 15/11 A2984 RMK A01 T01470114  RH  081%=      5-min Rain = 0
KES1 250322Z 17007KT 15/11 A2984 RMK A01 T01470114  RH  080%=      5-min Rain = 0
KES1 250323Z 17007KT 15/11 A2984 RMK A01 T01470114  RH  080%=      5-min Rain = 0
KES1 250324Z 17006KT 15/11 A2984 RMK A01 T01470113  RH  080%=      5-min Rain = 0
KES1 250325Z 17007KT 15/11 A2984 RMK A01 T01470114  RH  081%=      5-min Rain = 0
KES1 250326Z 17006KT 15/11 A2985 RMK A01 T01460114  RH  081%=      5-min Rain = 0
KES1 250327Z 17007KT 15/11 A2985 RMK A01 T01450114  RH  082%=      5-min Rain = 0
KES1 250328Z 17007KT 15/11 A2985 RMK A01 T01450114  RH  082%=      5-min Rain = 0
KES1 250329Z 17007KT 14/11 A2985 RMK A01 T01440114  RH  082%=      5-min Rain = 0
KES1 250330Z 17007KT 14/11 A2985 RMK A01 T01440114  RH  082%=      5-min Rain = 0
KES1 250331Z 17007KT 14/12 A2985 RMK A01 T01440115  RH  082%=      5-min Rain = 0
KES1 250332Z 17008KT 14/12 A2985 RMK A01 T01440115  RH  083%=      5-min Rain = 0
KES1 250333Z 16007KT 14/12 A2985 RMK A01 T01430115  RH  083%=      5-min Rain = 0
KES1 250334Z 16007KT 14/12 A2985 RMK A01 T01430115  RH  083%=      5-min Rain = 0
KES1 250335Z 16007KT 14/12 A2985 RMK A01 T01430115  RH  083%=      5-min Rain = 0
KES1 250336Z 17007KT 14/12 A2985 RMK A01 T01430115  RH  083%=      5-min Rain = 0
KES1 250337Z 17007KT 14/12 A2985 RMK A01 T01420115  RH  084%=      5-min Rain = 0
KES1 250338Z 17007KT 14/12 A2985 RMK A01 T01420115  RH  084%=      5-min Rain = 0
KES1 250339Z 17007KT 14/12 A2985 RMK A01 T01420115  RH  084%=      5-min Rain = 0
KES1 250340Z 16007KT 14/12 A2985 RMK A01 T01410115  RH  084%=      5-min Rain = 0
KES1 250341Z 17007KT 14/12 A2985 RMK A01 T01410115  RH  084%=      5-min Rain = 0
KES1 250342Z 17007KT 14/12 A2985 RMK A01 T01410115  RH  085%=      5-min Rain = 0
KES1 250343Z 16006KT 14/12 A2985 RMK A01 T01410115  RH  085%=      5-min Rain = 0
KES1 250344Z 17007KT 14/12 A2985 RMK A01 T01410116  RH  085%=      5-min Rain = 0
KES1 250345Z 17007KT 14/12 A2985 RMK A01 T01400116  RH  085%=      5-min Rain = 0
KES1 250346Z 17007KT 14/12 A2985 RMK A01 T01400116  RH  085%=      5-min Rain = 0
KES1 250347Z 17008KT 14/12 A2985 RMK A01 T01400117  RH  086%=      5-min Rain = 0
KES1 250348Z 17008KT 14/12 A2985 RMK A01 T01400117  RH  086%=      5-min Rain = 0
KES1 250349Z 17007KT 14/12 A2985 RMK A01 T01400117  RH  086%=      5-min Rain = 0
KES1 250350Z 17008KT 14/12 A2985 RMK A01 T01400116  RH  086%=      5-min Rain = 0
KES1 250351Z 17007KT 14/12 A2985 RMK A01 T01410117  RH  085%=      5-min Rain = 0
KES1 250352Z 17007KT 14/12 A2985 RMK A01 T01410116  RH  085%=      5-min Rain = 0
KES1 250353Z 17007KT 14/12 A2985 RMK A01 T01410117  RH  085%=      5-min Rain = 0
KES1 250354Z 17007KT 14/12 A2985 RMK A01 T01410116  RH  085%=      5-min Rain = 0
KES1 250355Z 17007KT 14/12 A2985 RMK A01 T01420117  RH  085%=      5-min Rain = 0
KES1 250356Z 17008KT 14/12 A2985 RMK A01 T01420117  RH  085%=      5-min Rain = 0
KES1 250357Z 17007KT 14/12 A2985 RMK A01 T01410117  RH  085%=      5-min Rain = 0
KES1 250358Z 17008KT 14/12 A2985 RMK A01 T01410117  RH  085%=      5-min Rain = 0
KES1 250359Z 17007KT 14/12 A2985 RMK A01 T01420117  RH  085%=      5-min Rain = 0
KES1 250400Z 17007KT 14/12 A2985 RMK A01 T01410116  RH  085%=      5-min Rain = 0
KES1 250401Z 17007KT 14/12 A2985 RMK A01 T01420117  RH  085%=      5-min Rain = 0
KES1 250402Z 17007KT 14/12 A2985 RMK A01 T01420117  RH  085%=      5-min Rain = 0
KES1 250403Z 17007KT 14/12 A2985 RMK A01 T01420117  RH  085%=      5-min Rain = 0
KES1 250404Z 17007KT 14/12 A2985 RMK A01 T01420117  RH  085%=      5-min Rain = 0
KES1 250405Z 17008KT 14/12 A2985 RMK A01 T01420117  RH  085%=      5-min Rain = 0
KES1 250406Z 17008KT 14/12 A2985 RMK A01 T01420117  RH  085%=      5-min Rain = 0
KES1 250407Z 17007KT 14/12 A2985 RMK A01 T01420117  RH  085%=      5-min Rain = 0
KES1 250408Z 17008KT 14/12 A2985 RMK A01 T01420117  RH  085%=      5-min Rain = 0
KES1 250409Z 17008KT 14/12 A2985 RMK A01 T01420117  RH  085%=      5-min Rain = 0
KES1 250410Z 17008KT 14/12 A2985 RMK A01 T01410117  RH  085%=      5-min Rain = 0
KES1 250411Z 17008KT 14/12 A2985 RMK A01 T01420117  RH  085%=      5-min Rain = 0
KES1 250412Z 17007KT 14/12 A2985 RMK A01 T01410116  RH  085%=      5-min Rain = 0
KES1 250413Z 17007KT 14/12 A2985 RMK A01 T01420117  RH  085%=      5-min Rain = 0
KES1 250414Z 17007KT 14/12 A2985 RMK A01 T01420117  RH  085%=      5-min Rain = 0
KES1 250415Z 17007KT 14/12 A2985 RMK A01 T01410117  RH  085%=      5-min Rain = 0
KES1 250416Z 17007KT 14/12 A2985 RMK A01 T01410117  RH  085%=      5-min Rain = 0
KES1 250417Z 17008KT 14/12 A2985 RMK A01 T01410117  RH  085%=      5-min Rain = 0
KES1 250418Z 17007KT 14/12 A2985 RMK A01 T01410117  RH  085%=      5-min Rain = 0
KES1 250419Z 17007KT 14/12 A2985 RMK A01 T01400116  RH  085%=      5-min Rain = 0
KES1 250420Z 17007KT 14/12 A2985 RMK A01 T01400117  RH  086%=      5-min Rain = 0
KES1 250421Z 17008KT 14/12 A2985 RMK A01 T01400116  RH  086%=      5-min Rain = 0
KES1 250422Z 17006KT 14/12 A2985 RMK A01 T01400116  RH  086%=      5-min Rain = 0
KES1 250423Z 17006KT 14/12 A2985 RMK A01 T01400116  RH  086%=      5-min Rain = 0
KES1 250424Z 17008KT 14/12 A2985 RMK A01 T01390116  RH  086%=      5-min Rain = 0
KES1 250425Z 17007KT 14/12 A2985 RMK A01 T01390116  RH  086%=      5-min Rain = 0
KES1 250426Z 17007KT 14/12 A2985 RMK A01 T01400117  RH  086%=      5-min Rain = 0
KES1 250427Z 17008KT 14/12 A2985 RMK A01 T01390116  RH  086%=      5-min Rain = 0
KES1 250428Z 17008KT 14/12 A2985 RMK A01 T01390117  RH  086%=      5-min Rain = 0
KES1 250429Z 17007KT 14/12 A2985 RMK A01 T01390117  RH  086%=      5-min Rain = 0
KES1 250430Z 17008KT 14/12 A2985 RMK A01 T01390116  RH  086%=      5-min Rain = 0
KES1 250431Z 17007KT 14/12 A2985 RMK A01 T01390117  RH  086%=      5-min Rain = 0
KES1 250432Z 17007KT 14/12 A2985 RMK A01 T01390116  RH  086%=      5-min Rain = 0
KES1 250433Z 17008KT 14/12 A2985 RMK A01 T01390116  RH  086%=      5-min Rain = 0
KES1 250434Z 17007KT 14/12 A2985 RMK A01 T01390116  RH  086%=      5-min Rain = 0
KES1 250435Z 17007KT 14/12 A2986 RMK A01 T01390116  RH  086%=      5-min Rain = 0
KES1 250436Z 17008KT 14/12 A2986 RMK A01 T01390116  RH  086%=      5-min Rain = 0
KES1 250437Z 17007KT 14/12 A2986 RMK A01 T01390116  RH  086%=      5-min Rain = 0
KES1 250438Z 17008KT 14/12 A2986 RMK A01 T01390115  RH  086%=      5-min Rain = 0
KES1 250439Z 16008KT 14/12 A2986 RMK A01 T01390115  RH  086%=      5-min Rain = 0
KES1 250440Z 17008KT 14/12 A2986 RMK A01 T01390116  RH  086%=      5-min Rain = 0
KES1 250441Z 17008KT 14/12 A2986 RMK A01 T01390115  RH  086%=      5-min Rain = 0
KES1 250442Z 17008KT 14/12 A2986 RMK A01 T01390116  RH  086%=      5-min Rain = 0
KES1 250443Z 16008KT 14/12 A2986 RMK A01 T01390116  RH  086%=      5-min Rain = 0
KES1 250444Z 16007KT 14/12 A2986 RMK A01 T01380115  RH  086%=      5-min Rain = 0
KES1 250445Z 16007KT 14/12 A2986 RMK A01 T01370115  RH  086%=      5-min Rain = 0
KES1 250446Z 16008KT 14/11 A2986 RMK A01 T01360114  RH  087%=      5-min Rain = 0
KES1 250447Z 16007KT 14/11 A2986 RMK A01 T01350114  RH  087%=      5-min Rain = 0
KES1 250448Z 16007KT 13/11 A2985 RMK A01 T01340114  RH  088%=      5-min Rain = 0
KES1 250449Z 16006KT 13/11 A2985 RMK A01 T01340114  RH  088%=      5-min Rain = 0
KES1 250450Z 16007KT 13/11 A2985 RMK A01 T01330114  RH  088%=      5-min Rain = 0
KES1 250451Z 16007KT 13/11 A2985 RMK A01 T01320114  RH  089%=      5-min Rain = 0
KES1 250452Z 16008KT 13/11 A2985 RMK A01 T01330114  RH  089%=      5-min Rain = 0
KES1 250453Z 17008KT 13/11 A2985 RMK A01 T01320114  RH  089%=      5-min Rain = 0
KES1 250454Z 17008KT 13/11 A2985 RMK A01 T01320114  RH  089%=      5-min Rain = 0
KES1 250455Z 17008KT 13/11 A2985 RMK A01 T01330114  RH  089%=      5-min Rain = 0
KES1 250456Z 17007KT 13/11 A2985 RMK A01 T01330114  RH  088%=      5-min Rain = 0
KES1 250457Z 17008KT 13/12 A2985 RMK A01 T01340115  RH  088%=      5-min Rain = 0
KES1 250458Z 17008KT 13/11 A2985 RMK A01 T01340114  RH  088%=      5-min Rain = 0
KES1 250459Z 16008KT 13/11 A2985 RMK A01 T01340114  RH  088%=      5-min Rain = 0

Page generated in 0.0359 seconds.